<?xml version="1.0" encoding="UTF-8" standalone="no" ?>
<gpx xmlns="http://www.topografix.com/GPX/1/1" xmlns:xsi="http://www.w3.org/2001/XMLSchema-instance" xsi:schemaLocation="http://www.topografix.com/GPX/1/1 http://www.topografix.com/GPX/1/1/gpx.xsd" version="1.1" creator="VisuGPX - https://www.visugpx.com">
  <metadata>
    <name>2019-10-06 16:19:24 randonnée passerelle 2019</name>
    <desc><![CDATA[très belle randonnée]]></desc>
  </metadata>
  <trk>
    <name><![CDATA[2019-10-06 16:19:24 randonnée passerelle 2019]]></name>
    <trkseg>
      <trkpt lat="46.37377" lon="5.7607">
        <ele>654.26</ele>
        <time>2019-10-06T11:34:29Z</time>
      </trkpt>
      <trkpt lat="46.37377" lon="5.76071">
        <ele>654.24</ele>
        <time>2019-10-06T11:34:30Z</time>
      </trkpt>
      <trkpt lat="46.37377" lon="5.76073">
        <ele>656.64</ele>
        <time>2019-10-06T11:34:34Z</time>
      </trkpt>
      <trkpt lat="46.37383" lon="5.76099">
        <ele>656.66</ele>
        <time>2019-10-06T11:34:50Z</time>
      </trkpt>
      <trkpt lat="46.37384" lon="5.76101">
        <ele>656.67</ele>
        <time>2019-10-06T11:34:52Z</time>
      </trkpt>
      <trkpt lat="46.3738" lon="5.76103">
        <ele>656.68</ele>
        <time>2019-10-06T11:34:57Z</time>
      </trkpt>
      <trkpt lat="46.3737" lon="5.76118">
        <ele>654.81</ele>
        <time>2019-10-06T11:35:10Z</time>
      </trkpt>
      <trkpt lat="46.37368" lon="5.76149">
        <ele>654.15</ele>
        <time>2019-10-06T11:35:27Z</time>
      </trkpt>
      <trkpt lat="46.37366" lon="5.76178">
        <ele>654.18</ele>
        <time>2019-10-06T11:35:44Z</time>
      </trkpt>
      <trkpt lat="46.37362" lon="5.76217">
        <ele>653.35</ele>
        <time>2019-10-06T11:36:06Z</time>
      </trkpt>
      <trkpt lat="46.37361" lon="5.76232">
        <ele>651.12</ele>
        <time>2019-10-06T11:36:16Z</time>
      </trkpt>
      <trkpt lat="46.3736" lon="5.7625">
        <ele>651.16</ele>
        <time>2019-10-06T11:36:27Z</time>
      </trkpt>
      <trkpt lat="46.3736" lon="5.76266">
        <ele>651.25</ele>
        <time>2019-10-06T11:36:46Z</time>
      </trkpt>
      <trkpt lat="46.37353" lon="5.7629">
        <ele>650.52</ele>
        <time>2019-10-06T11:37:07Z</time>
      </trkpt>
      <trkpt lat="46.37343" lon="5.76316">
        <ele>649.71</ele>
        <time>2019-10-06T11:37:24Z</time>
      </trkpt>
      <trkpt lat="46.37343" lon="5.76346">
        <ele>648.65</ele>
        <time>2019-10-06T11:37:43Z</time>
      </trkpt>
      <trkpt lat="46.37343" lon="5.76348">
        <ele>648.65</ele>
        <time>2019-10-06T11:37:44Z</time>
      </trkpt>
      <trkpt lat="46.3734" lon="5.76383">
        <ele>647.62</ele>
        <time>2019-10-06T11:38:04Z</time>
      </trkpt>
      <trkpt lat="46.3734" lon="5.76385">
        <ele>647.62</ele>
        <time>2019-10-06T11:38:05Z</time>
      </trkpt>
      <trkpt lat="46.37339" lon="5.76408">
        <ele>647.63</ele>
        <time>2019-10-06T11:38:21Z</time>
      </trkpt>
      <trkpt lat="46.37346" lon="5.76427">
        <ele>647.64</ele>
        <time>2019-10-06T11:38:37Z</time>
      </trkpt>
      <trkpt lat="46.37352" lon="5.76451">
        <ele>647.65</ele>
        <time>2019-10-06T11:38:52Z</time>
      </trkpt>
      <trkpt lat="46.37354" lon="5.76458">
        <ele>646.25</ele>
        <time>2019-10-06T11:38:56Z</time>
      </trkpt>
      <trkpt lat="46.37361" lon="5.76481">
        <ele>646.24</ele>
        <time>2019-10-06T11:39:11Z</time>
      </trkpt>
      <trkpt lat="46.3736" lon="5.76491">
        <ele>646.22</ele>
        <time>2019-10-06T11:39:16Z</time>
      </trkpt>
      <trkpt lat="46.37366" lon="5.765">
        <ele>645.39</ele>
        <time>2019-10-06T11:39:26Z</time>
      </trkpt>
      <trkpt lat="46.37373" lon="5.7651">
        <ele>644.49</ele>
        <time>2019-10-06T11:39:34Z</time>
      </trkpt>
      <trkpt lat="46.37372" lon="5.76525">
        <ele>642.54</ele>
        <time>2019-10-06T11:39:47Z</time>
      </trkpt>
      <trkpt lat="46.3737" lon="5.7653">
        <ele>641.2</ele>
        <time>2019-10-06T11:39:52Z</time>
      </trkpt>
      <trkpt lat="46.37369" lon="5.76533">
        <ele>639.89</ele>
        <time>2019-10-06T11:39:55Z</time>
      </trkpt>
      <trkpt lat="46.3737" lon="5.76536">
        <ele>639.91</ele>
        <time>2019-10-06T11:39:57Z</time>
      </trkpt>
      <trkpt lat="46.37372" lon="5.7654">
        <ele>638.27</ele>
        <time>2019-10-06T11:40:00Z</time>
      </trkpt>
      <trkpt lat="46.37376" lon="5.76554">
        <ele>640.5</ele>
        <time>2019-10-06T11:40:12Z</time>
      </trkpt>
      <trkpt lat="46.37377" lon="5.76569">
        <ele>641.24</ele>
        <time>2019-10-06T11:40:20Z</time>
      </trkpt>
      <trkpt lat="46.37383" lon="5.76589">
        <ele>643.13</ele>
        <time>2019-10-06T11:40:42Z</time>
      </trkpt>
      <trkpt lat="46.37397" lon="5.76616">
        <ele>643.05</ele>
        <time>2019-10-06T11:41:01Z</time>
      </trkpt>
      <trkpt lat="46.37404" lon="5.76642">
        <ele>640.75</ele>
        <time>2019-10-06T11:41:17Z</time>
      </trkpt>
      <trkpt lat="46.37406" lon="5.76649">
        <ele>640.75</ele>
        <time>2019-10-06T11:41:21Z</time>
      </trkpt>
      <trkpt lat="46.3741" lon="5.76655">
        <ele>640.76</ele>
        <time>2019-10-06T11:41:27Z</time>
      </trkpt>
      <trkpt lat="46.37412" lon="5.7666">
        <ele>640.77</ele>
        <time>2019-10-06T11:41:30Z</time>
      </trkpt>
      <trkpt lat="46.37414" lon="5.76674">
        <ele>638.9</ele>
        <time>2019-10-06T11:41:39Z</time>
      </trkpt>
      <trkpt lat="46.37422" lon="5.76697">
        <ele>638.12</ele>
        <time>2019-10-06T11:41:57Z</time>
      </trkpt>
      <trkpt lat="46.37431" lon="5.76718">
        <ele>637.08</ele>
        <time>2019-10-06T11:42:17Z</time>
      </trkpt>
      <trkpt lat="46.37436" lon="5.7673">
        <ele>635.77</ele>
        <time>2019-10-06T11:42:34Z</time>
      </trkpt>
      <trkpt lat="46.37448" lon="5.76752">
        <ele>635.86</ele>
        <time>2019-10-06T11:42:58Z</time>
      </trkpt>
      <trkpt lat="46.37454" lon="5.76764">
        <ele>634.63</ele>
        <time>2019-10-06T11:43:14Z</time>
      </trkpt>
      <trkpt lat="46.37464" lon="5.76787">
        <ele>634.76</ele>
        <time>2019-10-06T11:43:33Z</time>
      </trkpt>
      <trkpt lat="46.37467" lon="5.76791">
        <ele>632.27</ele>
        <time>2019-10-06T11:43:40Z</time>
      </trkpt>
      <trkpt lat="46.37471" lon="5.76794">
        <ele>634.71</ele>
        <time>2019-10-06T11:43:48Z</time>
      </trkpt>
      <trkpt lat="46.37478" lon="5.76814">
        <ele>634.71</ele>
        <time>2019-10-06T11:44:06Z</time>
      </trkpt>
      <trkpt lat="46.37486" lon="5.76834">
        <ele>634.66</ele>
        <time>2019-10-06T11:44:27Z</time>
      </trkpt>
      <trkpt lat="46.37492" lon="5.76844">
        <ele>632.33</ele>
        <time>2019-10-06T11:44:38Z</time>
      </trkpt>
      <trkpt lat="46.375" lon="5.76863">
        <ele>630.76</ele>
        <time>2019-10-06T11:44:56Z</time>
      </trkpt>
      <trkpt lat="46.37511" lon="5.76881">
        <ele>630.77</ele>
        <time>2019-10-06T11:45:17Z</time>
      </trkpt>
      <trkpt lat="46.37521" lon="5.76892">
        <ele>630.8</ele>
        <time>2019-10-06T11:45:33Z</time>
      </trkpt>
      <trkpt lat="46.37532" lon="5.76903">
        <ele>630.85</ele>
        <time>2019-10-06T11:45:49Z</time>
      </trkpt>
      <trkpt lat="46.37541" lon="5.76906">
        <ele>628.25</ele>
        <time>2019-10-06T11:46:05Z</time>
      </trkpt>
      <trkpt lat="46.37553" lon="5.76919">
        <ele>624.8</ele>
        <time>2019-10-06T11:46:18Z</time>
      </trkpt>
      <trkpt lat="46.3757" lon="5.76931">
        <ele>624.92</ele>
        <time>2019-10-06T11:46:33Z</time>
      </trkpt>
      <trkpt lat="46.37584" lon="5.76945">
        <ele>624.04</ele>
        <time>2019-10-06T11:46:56Z</time>
      </trkpt>
      <trkpt lat="46.37598" lon="5.76956">
        <ele>622.35</ele>
        <time>2019-10-06T11:47:17Z</time>
      </trkpt>
      <trkpt lat="46.37611" lon="5.76965">
        <ele>622.36</ele>
        <time>2019-10-06T11:47:37Z</time>
      </trkpt>
      <trkpt lat="46.37628" lon="5.76973">
        <ele>621.51</ele>
        <time>2019-10-06T11:47:56Z</time>
      </trkpt>
      <trkpt lat="46.37629" lon="5.76973">
        <ele>615.43</ele>
        <time>2019-10-06T11:47:57Z</time>
      </trkpt>
      <trkpt lat="46.3763" lon="5.76973">
        <ele>615.39</ele>
        <time>2019-10-06T11:47:58Z</time>
      </trkpt>
      <trkpt lat="46.3763" lon="5.76973">
        <ele>621.78</ele>
        <time>2019-10-06T11:47:59Z</time>
      </trkpt>
      <trkpt lat="46.37632" lon="5.76971">
        <ele>624.03</ele>
        <time>2019-10-06T11:48:01Z</time>
      </trkpt>
      <trkpt lat="46.37635" lon="5.76971">
        <ele>621.37</ele>
        <time>2019-10-06T11:48:04Z</time>
      </trkpt>
      <trkpt lat="46.37643" lon="5.76975">
        <ele>618.59</ele>
        <time>2019-10-06T11:48:19Z</time>
      </trkpt>
      <trkpt lat="46.37644" lon="5.76975">
        <ele>621.01</ele>
        <time>2019-10-06T11:48:21Z</time>
      </trkpt>
      <trkpt lat="46.3766" lon="5.76975">
        <ele>617.96</ele>
        <time>2019-10-06T11:48:41Z</time>
      </trkpt>
      <trkpt lat="46.37661" lon="5.76975">
        <ele>618.02</ele>
        <time>2019-10-06T11:48:42Z</time>
      </trkpt>
      <trkpt lat="46.37671" lon="5.76973">
        <ele>619.34</ele>
        <time>2019-10-06T11:49:01Z</time>
      </trkpt>
      <trkpt lat="46.37678" lon="5.76971">
        <ele>614.41</ele>
        <time>2019-10-06T11:49:09Z</time>
      </trkpt>
      <trkpt lat="46.37678" lon="5.76971">
        <ele>618.76</ele>
        <time>2019-10-06T11:49:10Z</time>
      </trkpt>
      <trkpt lat="46.3768" lon="5.76969">
        <ele>620.39</ele>
        <time>2019-10-06T11:49:12Z</time>
      </trkpt>
      <trkpt lat="46.37682" lon="5.76967">
        <ele>617.46</ele>
        <time>2019-10-06T11:49:15Z</time>
      </trkpt>
      <trkpt lat="46.37696" lon="5.76963">
        <ele>616.51</ele>
        <time>2019-10-06T11:49:36Z</time>
      </trkpt>
      <trkpt lat="46.37699" lon="5.76963">
        <ele>617.74</ele>
        <time>2019-10-06T11:49:40Z</time>
      </trkpt>
      <trkpt lat="46.37714" lon="5.7696">
        <ele>617.71</ele>
        <time>2019-10-06T11:49:59Z</time>
      </trkpt>
      <trkpt lat="46.37715" lon="5.7696">
        <ele>605.7</ele>
        <time>2019-10-06T11:50:00Z</time>
      </trkpt>
      <trkpt lat="46.37716" lon="5.7696">
        <ele>605.58</ele>
        <time>2019-10-06T11:50:01Z</time>
      </trkpt>
      <trkpt lat="46.37718" lon="5.7696">
        <ele>618.55</ele>
        <time>2019-10-06T11:50:02Z</time>
      </trkpt>
      <trkpt lat="46.37719" lon="5.7696">
        <ele>620.39</ele>
        <time>2019-10-06T11:50:03Z</time>
      </trkpt>
      <trkpt lat="46.37721" lon="5.76961">
        <ele>616.55</ele>
        <time>2019-10-06T11:50:06Z</time>
      </trkpt>
      <trkpt lat="46.37732" lon="5.76982">
        <ele>613.12</ele>
        <time>2019-10-06T11:50:23Z</time>
      </trkpt>
      <trkpt lat="46.37739" lon="5.76993">
        <ele>609.78</ele>
        <time>2019-10-06T11:50:39Z</time>
      </trkpt>
      <trkpt lat="46.37742" lon="5.7701">
        <ele>607.71</ele>
        <time>2019-10-06T11:50:50Z</time>
      </trkpt>
      <trkpt lat="46.37751" lon="5.77021">
        <ele>603.92</ele>
        <time>2019-10-06T11:51:06Z</time>
      </trkpt>
      <trkpt lat="46.37751" lon="5.77021">
        <ele>603.93</ele>
        <time>2019-10-06T11:51:07Z</time>
      </trkpt>
      <trkpt lat="46.37754" lon="5.7702">
        <ele>606.36</ele>
        <time>2019-10-06T11:51:15Z</time>
      </trkpt>
      <trkpt lat="46.37757" lon="5.77019">
        <ele>606.33</ele>
        <time>2019-10-06T11:51:21Z</time>
      </trkpt>
      <trkpt lat="46.37764" lon="5.77021">
        <ele>603.41</ele>
        <time>2019-10-06T11:51:29Z</time>
      </trkpt>
      <trkpt lat="46.3778" lon="5.77018">
        <ele>603.3</ele>
        <time>2019-10-06T11:51:50Z</time>
      </trkpt>
      <trkpt lat="46.37793" lon="5.77004">
        <ele>603.22</ele>
        <time>2019-10-06T11:52:13Z</time>
      </trkpt>
      <trkpt lat="46.37799" lon="5.76992">
        <ele>602.24</ele>
        <time>2019-10-06T11:52:32Z</time>
      </trkpt>
      <trkpt lat="46.37805" lon="5.76985">
        <ele>599.9</ele>
        <time>2019-10-06T11:52:40Z</time>
      </trkpt>
      <trkpt lat="46.37819" lon="5.76984">
        <ele>599.74</ele>
        <time>2019-10-06T11:53:00Z</time>
      </trkpt>
      <trkpt lat="46.37837" lon="5.76997">
        <ele>597.87</ele>
        <time>2019-10-06T11:53:17Z</time>
      </trkpt>
      <trkpt lat="46.37838" lon="5.76998">
        <ele>597.02</ele>
        <time>2019-10-06T11:53:18Z</time>
      </trkpt>
      <trkpt lat="46.37842" lon="5.77004">
        <ele>596.17</ele>
        <time>2019-10-06T11:53:23Z</time>
      </trkpt>
      <trkpt lat="46.37843" lon="5.7701">
        <ele>595.05</ele>
        <time>2019-10-06T11:53:27Z</time>
      </trkpt>
      <trkpt lat="46.37853" lon="5.77032">
        <ele>593.27</ele>
        <time>2019-10-06T11:53:45Z</time>
      </trkpt>
      <trkpt lat="46.37861" lon="5.77044">
        <ele>592.35</ele>
        <time>2019-10-06T11:53:55Z</time>
      </trkpt>
      <trkpt lat="46.37857" lon="5.77047">
        <ele>590.7</ele>
        <time>2019-10-06T11:54:02Z</time>
      </trkpt>
      <trkpt lat="46.37845" lon="5.77045">
        <ele>589.79</ele>
        <time>2019-10-06T11:54:17Z</time>
      </trkpt>
      <trkpt lat="46.37842" lon="5.77049">
        <ele>589.82</ele>
        <time>2019-10-06T11:54:23Z</time>
      </trkpt>
      <trkpt lat="46.37837" lon="5.77062">
        <ele>588.78</ele>
        <time>2019-10-06T11:54:28Z</time>
      </trkpt>
      <trkpt lat="46.37831" lon="5.7707">
        <ele>587.49</ele>
        <time>2019-10-06T11:54:33Z</time>
      </trkpt>
      <trkpt lat="46.37825" lon="5.77071">
        <ele>586.45</ele>
        <time>2019-10-06T11:54:39Z</time>
      </trkpt>
      <trkpt lat="46.37809" lon="5.77078">
        <ele>585.68</ele>
        <time>2019-10-06T11:54:52Z</time>
      </trkpt>
      <trkpt lat="46.37792" lon="5.77091">
        <ele>583.75</ele>
        <time>2019-10-06T11:55:07Z</time>
      </trkpt>
      <trkpt lat="46.37775" lon="5.7711">
        <ele>581.13</ele>
        <time>2019-10-06T11:55:24Z</time>
      </trkpt>
      <trkpt lat="46.37769" lon="5.77111">
        <ele>581.13</ele>
        <time>2019-10-06T11:55:28Z</time>
      </trkpt>
      <trkpt lat="46.37763" lon="5.77112">
        <ele>581.16</ele>
        <time>2019-10-06T11:55:31Z</time>
      </trkpt>
      <trkpt lat="46.37742" lon="5.7711">
        <ele>581.28</ele>
        <time>2019-10-06T11:55:45Z</time>
      </trkpt>
      <trkpt lat="46.37722" lon="5.77104">
        <ele>581.21</ele>
        <time>2019-10-06T11:56:02Z</time>
      </trkpt>
      <trkpt lat="46.37703" lon="5.771">
        <ele>581.04</ele>
        <time>2019-10-06T11:56:19Z</time>
      </trkpt>
      <trkpt lat="46.37683" lon="5.77095">
        <ele>580.78</ele>
        <time>2019-10-06T11:56:38Z</time>
      </trkpt>
      <trkpt lat="46.37679" lon="5.77093">
        <ele>583.03</ele>
        <time>2019-10-06T11:56:42Z</time>
      </trkpt>
      <trkpt lat="46.3766" lon="5.77093">
        <ele>582.65</ele>
        <time>2019-10-06T11:57:00Z</time>
      </trkpt>
      <trkpt lat="46.37643" lon="5.77089">
        <ele>582.31</ele>
        <time>2019-10-06T11:57:15Z</time>
      </trkpt>
      <trkpt lat="46.37624" lon="5.77087">
        <ele>582.71</ele>
        <time>2019-10-06T11:57:30Z</time>
      </trkpt>
      <trkpt lat="46.37603" lon="5.77077">
        <ele>582.07</ele>
        <time>2019-10-06T11:57:50Z</time>
      </trkpt>
      <trkpt lat="46.37588" lon="5.77068">
        <ele>581.48</ele>
        <time>2019-10-06T11:58:05Z</time>
      </trkpt>
      <trkpt lat="46.37584" lon="5.77054">
        <ele>580.75</ele>
        <time>2019-10-06T11:58:24Z</time>
      </trkpt>
      <trkpt lat="46.37573" lon="5.77052">
        <ele>579.69</ele>
        <time>2019-10-06T11:58:49Z</time>
      </trkpt>
      <trkpt lat="46.37563" lon="5.77051">
        <ele>579.27</ele>
        <time>2019-10-06T11:59:00Z</time>
      </trkpt>
      <trkpt lat="46.37541" lon="5.77046">
        <ele>580.96</ele>
        <time>2019-10-06T11:59:22Z</time>
      </trkpt>
      <trkpt lat="46.37517" lon="5.77027">
        <ele>581.07</ele>
        <time>2019-10-06T11:59:40Z</time>
      </trkpt>
      <trkpt lat="46.37483" lon="5.7699">
        <ele>582.78</ele>
        <time>2019-10-06T11:59:57Z</time>
      </trkpt>
      <trkpt lat="46.37472" lon="5.76968">
        <ele>583.06</ele>
        <time>2019-10-06T12:00:20Z</time>
      </trkpt>
      <trkpt lat="46.37463" lon="5.76953">
        <ele>584.99</ele>
        <time>2019-10-06T12:00:40Z</time>
      </trkpt>
      <trkpt lat="46.37458" lon="5.76941">
        <ele>585.82</ele>
        <time>2019-10-06T12:00:51Z</time>
      </trkpt>
      <trkpt lat="46.37449" lon="5.76909">
        <ele>587.37</ele>
        <time>2019-10-06T12:01:11Z</time>
      </trkpt>
      <trkpt lat="46.37438" lon="5.76894">
        <ele>588.96</ele>
        <time>2019-10-06T12:01:29Z</time>
      </trkpt>
      <trkpt lat="46.37429" lon="5.76881">
        <ele>590.42</ele>
        <time>2019-10-06T12:01:44Z</time>
      </trkpt>
      <trkpt lat="46.37428" lon="5.76879">
        <ele>590.38</ele>
        <time>2019-10-06T12:01:46Z</time>
      </trkpt>
      <trkpt lat="46.37417" lon="5.76855">
        <ele>592.05</ele>
        <time>2019-10-06T12:02:01Z</time>
      </trkpt>
      <trkpt lat="46.37411" lon="5.76844">
        <ele>593.71</ele>
        <time>2019-10-06T12:02:13Z</time>
      </trkpt>
      <trkpt lat="46.37405" lon="5.76822">
        <ele>594.5</ele>
        <time>2019-10-06T12:02:27Z</time>
      </trkpt>
      <trkpt lat="46.37398" lon="5.76793">
        <ele>594.43</ele>
        <time>2019-10-06T12:02:41Z</time>
      </trkpt>
      <trkpt lat="46.37387" lon="5.76767">
        <ele>594.45</ele>
        <time>2019-10-06T12:02:54Z</time>
      </trkpt>
      <trkpt lat="46.37381" lon="5.7676">
        <ele>595.29</ele>
        <time>2019-10-06T12:02:57Z</time>
      </trkpt>
      <trkpt lat="46.37358" lon="5.76724">
        <ele>596.13</ele>
        <time>2019-10-06T12:03:14Z</time>
      </trkpt>
      <trkpt lat="46.37344" lon="5.76686">
        <ele>597.08</ele>
        <time>2019-10-06T12:03:31Z</time>
      </trkpt>
      <trkpt lat="46.37339" lon="5.76662">
        <ele>598.08</ele>
        <time>2019-10-06T12:03:45Z</time>
      </trkpt>
      <trkpt lat="46.37337" lon="5.76651">
        <ele>598.98</ele>
        <time>2019-10-06T12:03:51Z</time>
      </trkpt>
      <trkpt lat="46.37332" lon="5.76629">
        <ele>600.05</ele>
        <time>2019-10-06T12:04:04Z</time>
      </trkpt>
      <trkpt lat="46.37332" lon="5.76625">
        <ele>600.09</ele>
        <time>2019-10-06T12:04:08Z</time>
      </trkpt>
      <trkpt lat="46.3733" lon="5.7662">
        <ele>600.98</ele>
        <time>2019-10-06T12:04:12Z</time>
      </trkpt>
      <trkpt lat="46.37319" lon="5.76588">
        <ele>603.85</ele>
        <time>2019-10-06T12:04:35Z</time>
      </trkpt>
      <trkpt lat="46.37315" lon="5.76582">
        <ele>603.9</ele>
        <time>2019-10-06T12:04:39Z</time>
      </trkpt>
      <trkpt lat="46.37299" lon="5.76549">
        <ele>604.91</ele>
        <time>2019-10-06T12:04:56Z</time>
      </trkpt>
      <trkpt lat="46.37297" lon="5.76543">
        <ele>604.95</ele>
        <time>2019-10-06T12:04:59Z</time>
      </trkpt>
      <trkpt lat="46.37294" lon="5.76533">
        <ele>605.89</ele>
        <time>2019-10-06T12:05:05Z</time>
      </trkpt>
      <trkpt lat="46.37286" lon="5.76502">
        <ele>607</ele>
        <time>2019-10-06T12:05:23Z</time>
      </trkpt>
      <trkpt lat="46.37273" lon="5.76476">
        <ele>608.15</ele>
        <time>2019-10-06T12:05:39Z</time>
      </trkpt>
      <trkpt lat="46.37271" lon="5.76473">
        <ele>609.04</ele>
        <time>2019-10-06T12:05:41Z</time>
      </trkpt>
      <trkpt lat="46.37258" lon="5.7645">
        <ele>609.19</ele>
        <time>2019-10-06T12:05:55Z</time>
      </trkpt>
      <trkpt lat="46.37257" lon="5.76448">
        <ele>609.27</ele>
        <time>2019-10-06T12:05:56Z</time>
      </trkpt>
      <trkpt lat="46.37252" lon="5.7644">
        <ele>610.01</ele>
        <time>2019-10-06T12:06:01Z</time>
      </trkpt>
      <trkpt lat="46.37249" lon="5.76437">
        <ele>610.05</ele>
        <time>2019-10-06T12:06:04Z</time>
      </trkpt>
      <trkpt lat="46.37242" lon="5.76427">
        <ele>611.09</ele>
        <time>2019-10-06T12:06:11Z</time>
      </trkpt>
      <trkpt lat="46.37238" lon="5.76422">
        <ele>611.15</ele>
        <time>2019-10-06T12:06:15Z</time>
      </trkpt>
      <trkpt lat="46.37226" lon="5.76404">
        <ele>613.68</ele>
        <time>2019-10-06T12:06:29Z</time>
      </trkpt>
      <trkpt lat="46.37225" lon="5.764">
        <ele>613.71</ele>
        <time>2019-10-06T12:06:31Z</time>
      </trkpt>
      <trkpt lat="46.37219" lon="5.76384">
        <ele>614.72</ele>
        <time>2019-10-06T12:06:42Z</time>
      </trkpt>
      <trkpt lat="46.37216" lon="5.76377">
        <ele>614.76</ele>
        <time>2019-10-06T12:06:47Z</time>
      </trkpt>
      <trkpt lat="46.37213" lon="5.76373">
        <ele>614.77</ele>
        <time>2019-10-06T12:06:50Z</time>
      </trkpt>
      <trkpt lat="46.37204" lon="5.76359">
        <ele>616.79</ele>
        <time>2019-10-06T12:07:03Z</time>
      </trkpt>
      <trkpt lat="46.3719" lon="5.76337">
        <ele>617.79</ele>
        <time>2019-10-06T12:07:19Z</time>
      </trkpt>
      <trkpt lat="46.37181" lon="5.76322">
        <ele>617.77</ele>
        <time>2019-10-06T12:07:31Z</time>
      </trkpt>
      <trkpt lat="46.37175" lon="5.76313">
        <ele>618.54</ele>
        <time>2019-10-06T12:07:38Z</time>
      </trkpt>
      <trkpt lat="46.37161" lon="5.76298">
        <ele>618.55</ele>
        <time>2019-10-06T12:07:52Z</time>
      </trkpt>
      <trkpt lat="46.37141" lon="5.76278">
        <ele>618.49</ele>
        <time>2019-10-06T12:08:09Z</time>
      </trkpt>
      <trkpt lat="46.37124" lon="5.76261">
        <ele>620.04</ele>
        <time>2019-10-06T12:08:24Z</time>
      </trkpt>
      <trkpt lat="46.37107" lon="5.76246">
        <ele>622.52</ele>
        <time>2019-10-06T12:08:43Z</time>
      </trkpt>
      <trkpt lat="46.37096" lon="5.76223">
        <ele>624.92</ele>
        <time>2019-10-06T12:08:59Z</time>
      </trkpt>
      <trkpt lat="46.37082" lon="5.76221">
        <ele>625.61</ele>
        <time>2019-10-06T12:09:11Z</time>
      </trkpt>
      <trkpt lat="46.37065" lon="5.76205">
        <ele>627.12</ele>
        <time>2019-10-06T12:09:30Z</time>
      </trkpt>
      <trkpt lat="46.37055" lon="5.76188">
        <ele>626.99</ele>
        <time>2019-10-06T12:09:40Z</time>
      </trkpt>
      <trkpt lat="46.37051" lon="5.76185">
        <ele>624.66</ele>
        <time>2019-10-06T12:09:43Z</time>
      </trkpt>
      <trkpt lat="46.37048" lon="5.76183">
        <ele>624.67</ele>
        <time>2019-10-06T12:09:45Z</time>
      </trkpt>
      <trkpt lat="46.37044" lon="5.76182">
        <ele>623.89</ele>
        <time>2019-10-06T12:09:48Z</time>
      </trkpt>
      <trkpt lat="46.37034" lon="5.7617">
        <ele>623.85</ele>
        <time>2019-10-06T12:09:56Z</time>
      </trkpt>
      <trkpt lat="46.37023" lon="5.76166">
        <ele>623.89</ele>
        <time>2019-10-06T12:10:04Z</time>
      </trkpt>
      <trkpt lat="46.3702" lon="5.76162">
        <ele>623.9</ele>
        <time>2019-10-06T12:10:06Z</time>
      </trkpt>
      <trkpt lat="46.37007" lon="5.76148">
        <ele>623.91</ele>
        <time>2019-10-06T12:10:21Z</time>
      </trkpt>
      <trkpt lat="46.36998" lon="5.76155">
        <ele>623.05</ele>
        <time>2019-10-06T12:10:29Z</time>
      </trkpt>
      <trkpt lat="46.36978" lon="5.7615">
        <ele>623.08</ele>
        <time>2019-10-06T12:10:47Z</time>
      </trkpt>
      <trkpt lat="46.36967" lon="5.7615">
        <ele>623.08</ele>
        <time>2019-10-06T12:10:53Z</time>
      </trkpt>
      <trkpt lat="46.3696" lon="5.76147">
        <ele>623.1</ele>
        <time>2019-10-06T12:10:58Z</time>
      </trkpt>
      <trkpt lat="46.36944" lon="5.76144">
        <ele>623.14</ele>
        <time>2019-10-06T12:11:10Z</time>
      </trkpt>
      <trkpt lat="46.3693" lon="5.76146">
        <ele>623.15</ele>
        <time>2019-10-06T12:11:19Z</time>
      </trkpt>
      <trkpt lat="46.36916" lon="5.76143">
        <ele>623.17</ele>
        <time>2019-10-06T12:11:32Z</time>
      </trkpt>
      <trkpt lat="46.3691" lon="5.76141">
        <ele>623.17</ele>
        <time>2019-10-06T12:11:37Z</time>
      </trkpt>
      <trkpt lat="46.36895" lon="5.76134">
        <ele>625.46</ele>
        <time>2019-10-06T12:11:48Z</time>
      </trkpt>
      <trkpt lat="46.36873" lon="5.76131">
        <ele>626.2</ele>
        <time>2019-10-06T12:12:04Z</time>
      </trkpt>
      <trkpt lat="46.36862" lon="5.7613">
        <ele>626.99</ele>
        <time>2019-10-06T12:12:14Z</time>
      </trkpt>
      <trkpt lat="46.36841" lon="5.76135">
        <ele>627.65</ele>
        <time>2019-10-06T12:12:32Z</time>
      </trkpt>
      <trkpt lat="46.36839" lon="5.76135">
        <ele>627.64</ele>
        <time>2019-10-06T12:12:34Z</time>
      </trkpt>
      <trkpt lat="46.36833" lon="5.76132">
        <ele>627.6</ele>
        <time>2019-10-06T12:12:38Z</time>
      </trkpt>
      <trkpt lat="46.36828" lon="5.76129">
        <ele>625.32</ele>
        <time>2019-10-06T12:12:41Z</time>
      </trkpt>
      <trkpt lat="46.36807" lon="5.76123">
        <ele>623.42</ele>
        <time>2019-10-06T12:12:54Z</time>
      </trkpt>
      <trkpt lat="46.36791" lon="5.7612">
        <ele>622.54</ele>
        <time>2019-10-06T12:13:06Z</time>
      </trkpt>
      <trkpt lat="46.36787" lon="5.76119">
        <ele>621.74</ele>
        <time>2019-10-06T12:13:09Z</time>
      </trkpt>
      <trkpt lat="46.36761" lon="5.7611">
        <ele>621.63</ele>
        <time>2019-10-06T12:13:30Z</time>
      </trkpt>
      <trkpt lat="46.36742" lon="5.76113">
        <ele>621.5</ele>
        <time>2019-10-06T12:13:47Z</time>
      </trkpt>
      <trkpt lat="46.36734" lon="5.76108">
        <ele>621.42</ele>
        <time>2019-10-06T12:13:51Z</time>
      </trkpt>
      <trkpt lat="46.3673" lon="5.76109">
        <ele>621.42</ele>
        <time>2019-10-06T12:13:55Z</time>
      </trkpt>
      <trkpt lat="46.36715" lon="5.76102">
        <ele>621.22</ele>
        <time>2019-10-06T12:14:09Z</time>
      </trkpt>
      <trkpt lat="46.36704" lon="5.76094">
        <ele>621.16</ele>
        <time>2019-10-06T12:14:14Z</time>
      </trkpt>
      <trkpt lat="46.36697" lon="5.76088">
        <ele>621.15</ele>
        <time>2019-10-06T12:14:18Z</time>
      </trkpt>
      <trkpt lat="46.36691" lon="5.76084">
        <ele>621.15</ele>
        <time>2019-10-06T12:14:22Z</time>
      </trkpt>
      <trkpt lat="46.36685" lon="5.76083">
        <ele>621.09</ele>
        <time>2019-10-06T12:14:26Z</time>
      </trkpt>
      <trkpt lat="46.36682" lon="5.76083">
        <ele>621.07</ele>
        <time>2019-10-06T12:14:29Z</time>
      </trkpt>
      <trkpt lat="46.36674" lon="5.76081">
        <ele>621.03</ele>
        <time>2019-10-06T12:14:36Z</time>
      </trkpt>
      <trkpt lat="46.36673" lon="5.7608">
        <ele>623.34</ele>
        <time>2019-10-06T12:14:38Z</time>
      </trkpt>
      <trkpt lat="46.36671" lon="5.76078">
        <ele>623.36</ele>
        <time>2019-10-06T12:14:40Z</time>
      </trkpt>
      <trkpt lat="46.36655" lon="5.76062">
        <ele>625.99</ele>
        <time>2019-10-06T12:14:57Z</time>
      </trkpt>
      <trkpt lat="46.36654" lon="5.76058">
        <ele>626.75</ele>
        <time>2019-10-06T12:14:59Z</time>
      </trkpt>
      <trkpt lat="46.36642" lon="5.76041">
        <ele>628.22</ele>
        <time>2019-10-06T12:15:13Z</time>
      </trkpt>
      <trkpt lat="46.36639" lon="5.76037">
        <ele>629.02</ele>
        <time>2019-10-06T12:15:16Z</time>
      </trkpt>
      <trkpt lat="46.36633" lon="5.76034">
        <ele>629.83</ele>
        <time>2019-10-06T12:15:20Z</time>
      </trkpt>
      <trkpt lat="46.36625" lon="5.76025">
        <ele>630.58</ele>
        <time>2019-10-06T12:15:29Z</time>
      </trkpt>
      <trkpt lat="46.36613" lon="5.76009">
        <ele>632.36</ele>
        <time>2019-10-06T12:15:41Z</time>
      </trkpt>
      <trkpt lat="46.36607" lon="5.75999">
        <ele>633.14</ele>
        <time>2019-10-06T12:15:48Z</time>
      </trkpt>
      <trkpt lat="46.36599" lon="5.75989">
        <ele>633.91</ele>
        <time>2019-10-06T12:15:55Z</time>
      </trkpt>
      <trkpt lat="46.36585" lon="5.75983">
        <ele>634.59</ele>
        <time>2019-10-06T12:16:08Z</time>
      </trkpt>
      <trkpt lat="46.36573" lon="5.75962">
        <ele>636.95</ele>
        <time>2019-10-06T12:16:24Z</time>
      </trkpt>
      <trkpt lat="46.36556" lon="5.75955">
        <ele>639.33</ele>
        <time>2019-10-06T12:16:39Z</time>
      </trkpt>
      <trkpt lat="46.36544" lon="5.75934">
        <ele>640.96</ele>
        <time>2019-10-06T12:16:54Z</time>
      </trkpt>
      <trkpt lat="46.36533" lon="5.75901">
        <ele>641.12</ele>
        <time>2019-10-06T12:17:12Z</time>
      </trkpt>
      <trkpt lat="46.36528" lon="5.7588">
        <ele>641.25</ele>
        <time>2019-10-06T12:17:24Z</time>
      </trkpt>
      <trkpt lat="46.36531" lon="5.75855">
        <ele>641.4</ele>
        <time>2019-10-06T12:17:37Z</time>
      </trkpt>
      <trkpt lat="46.36537" lon="5.75829">
        <ele>639.22</ele>
        <time>2019-10-06T12:17:51Z</time>
      </trkpt>
      <trkpt lat="46.36537" lon="5.75826">
        <ele>639.23</ele>
        <time>2019-10-06T12:17:52Z</time>
      </trkpt>
      <trkpt lat="46.36537" lon="5.7579">
        <ele>637.89</ele>
        <time>2019-10-06T12:18:09Z</time>
      </trkpt>
      <trkpt lat="46.36539" lon="5.75757">
        <ele>636.38</ele>
        <time>2019-10-06T12:18:25Z</time>
      </trkpt>
      <trkpt lat="46.3655" lon="5.7573">
        <ele>635.12</ele>
        <time>2019-10-06T12:18:41Z</time>
      </trkpt>
      <trkpt lat="46.36568" lon="5.75717">
        <ele>634.55</ele>
        <time>2019-10-06T12:18:55Z</time>
      </trkpt>
      <trkpt lat="46.36586" lon="5.75709">
        <ele>633.1</ele>
        <time>2019-10-06T12:19:08Z</time>
      </trkpt>
      <trkpt lat="46.3659" lon="5.75707">
        <ele>633.12</ele>
        <time>2019-10-06T12:19:11Z</time>
      </trkpt>
      <trkpt lat="46.36595" lon="5.75699">
        <ele>633.2</ele>
        <time>2019-10-06T12:19:16Z</time>
      </trkpt>
      <trkpt lat="46.36604" lon="5.75684">
        <ele>632.5</ele>
        <time>2019-10-06T12:19:26Z</time>
      </trkpt>
      <trkpt lat="46.36618" lon="5.75655">
        <ele>631.81</ele>
        <time>2019-10-06T12:19:42Z</time>
      </trkpt>
      <trkpt lat="46.36619" lon="5.75652">
        <ele>631.84</ele>
        <time>2019-10-06T12:19:44Z</time>
      </trkpt>
      <trkpt lat="46.36626" lon="5.75642">
        <ele>631.89</ele>
        <time>2019-10-06T12:19:50Z</time>
      </trkpt>
      <trkpt lat="46.36638" lon="5.7562">
        <ele>631.26</ele>
        <time>2019-10-06T12:20:05Z</time>
      </trkpt>
      <trkpt lat="46.36641" lon="5.75614">
        <ele>631.3</ele>
        <time>2019-10-06T12:20:09Z</time>
      </trkpt>
      <trkpt lat="46.36646" lon="5.75605">
        <ele>631.36</ele>
        <time>2019-10-06T12:20:15Z</time>
      </trkpt>
      <trkpt lat="46.3665" lon="5.75586">
        <ele>631.46</ele>
        <time>2019-10-06T12:20:26Z</time>
      </trkpt>
      <trkpt lat="46.36658" lon="5.75563">
        <ele>630.81</ele>
        <time>2019-10-06T12:20:39Z</time>
      </trkpt>
      <trkpt lat="46.3666" lon="5.75546">
        <ele>628.49</ele>
        <time>2019-10-06T12:20:48Z</time>
      </trkpt>
      <trkpt lat="46.36665" lon="5.75535">
        <ele>627.79</ele>
        <time>2019-10-06T12:21:00Z</time>
      </trkpt>
      <trkpt lat="46.36674" lon="5.75539">
        <ele>627.99</ele>
        <time>2019-10-06T12:21:11Z</time>
      </trkpt>
      <trkpt lat="46.36689" lon="5.75544">
        <ele>630.6</ele>
        <time>2019-10-06T12:21:24Z</time>
      </trkpt>
      <trkpt lat="46.36702" lon="5.75547">
        <ele>631.51</ele>
        <time>2019-10-06T12:21:34Z</time>
      </trkpt>
      <trkpt lat="46.36723" lon="5.75548">
        <ele>633.12</ele>
        <time>2019-10-06T12:21:47Z</time>
      </trkpt>
      <trkpt lat="46.36728" lon="5.75548">
        <ele>633.15</ele>
        <time>2019-10-06T12:21:50Z</time>
      </trkpt>
      <trkpt lat="46.36736" lon="5.7555">
        <ele>633.17</ele>
        <time>2019-10-06T12:21:54Z</time>
      </trkpt>
      <trkpt lat="46.36747" lon="5.75552">
        <ele>634.04</ele>
        <time>2019-10-06T12:22:05Z</time>
      </trkpt>
      <trkpt lat="46.36748" lon="5.75551">
        <ele>634.27</ele>
        <time>2019-10-06T12:22:31Z</time>
      </trkpt>
      <trkpt lat="46.36742" lon="5.7555">
        <ele>634.35</ele>
        <time>2019-10-06T12:22:38Z</time>
      </trkpt>
      <trkpt lat="46.36728" lon="5.75549">
        <ele>634.52</ele>
        <time>2019-10-06T12:22:51Z</time>
      </trkpt>
      <trkpt lat="46.36716" lon="5.75548">
        <ele>634.65</ele>
        <time>2019-10-06T12:23:03Z</time>
      </trkpt>
      <trkpt lat="46.36711" lon="5.75547">
        <ele>632.24</ele>
        <time>2019-10-06T12:23:08Z</time>
      </trkpt>
      <trkpt lat="46.36684" lon="5.75538">
        <ele>629.98</ele>
        <time>2019-10-06T12:23:27Z</time>
      </trkpt>
      <trkpt lat="46.3667" lon="5.75536">
        <ele>629.15</ele>
        <time>2019-10-06T12:23:37Z</time>
      </trkpt>
      <trkpt lat="46.36666" lon="5.75533">
        <ele>628.45</ele>
        <time>2019-10-06T12:23:41Z</time>
      </trkpt>
      <trkpt lat="46.36664" lon="5.7553">
        <ele>628.49</ele>
        <time>2019-10-06T12:23:43Z</time>
      </trkpt>
      <trkpt lat="46.36645" lon="5.75509">
        <ele>626.2</ele>
        <time>2019-10-06T12:23:58Z</time>
      </trkpt>
      <trkpt lat="46.36641" lon="5.75505">
        <ele>625.48</ele>
        <time>2019-10-06T12:24:01Z</time>
      </trkpt>
      <trkpt lat="46.36623" lon="5.75495">
        <ele>623.19</ele>
        <time>2019-10-06T12:24:15Z</time>
      </trkpt>
      <trkpt lat="46.36613" lon="5.75486">
        <ele>620.37</ele>
        <time>2019-10-06T12:24:24Z</time>
      </trkpt>
      <trkpt lat="46.36608" lon="5.75479">
        <ele>619.63</ele>
        <time>2019-10-06T12:24:29Z</time>
      </trkpt>
      <trkpt lat="46.36605" lon="5.75472">
        <ele>619.65</ele>
        <time>2019-10-06T12:24:33Z</time>
      </trkpt>
      <trkpt lat="46.36596" lon="5.7545">
        <ele>618.84</ele>
        <time>2019-10-06T12:24:45Z</time>
      </trkpt>
      <trkpt lat="46.36595" lon="5.75433">
        <ele>618.94</ele>
        <time>2019-10-06T12:24:53Z</time>
      </trkpt>
      <trkpt lat="46.36596" lon="5.75412">
        <ele>619.06</ele>
        <time>2019-10-06T12:25:03Z</time>
      </trkpt>
      <trkpt lat="46.36592" lon="5.75395">
        <ele>619.19</ele>
        <time>2019-10-06T12:25:15Z</time>
      </trkpt>
      <trkpt lat="46.36591" lon="5.75387">
        <ele>619.46</ele>
        <time>2019-10-06T12:25:41Z</time>
      </trkpt>
      <trkpt lat="46.3659" lon="5.75384">
        <ele>619.51</ele>
        <time>2019-10-06T12:25:47Z</time>
      </trkpt>
      <trkpt lat="46.36581" lon="5.75376">
        <ele>618.71</ele>
        <time>2019-10-06T12:25:55Z</time>
      </trkpt>
      <trkpt lat="46.36562" lon="5.75374">
        <ele>618.07</ele>
        <time>2019-10-06T12:26:09Z</time>
      </trkpt>
      <trkpt lat="46.36545" lon="5.75358">
        <ele>615.7</ele>
        <time>2019-10-06T12:26:24Z</time>
      </trkpt>
      <trkpt lat="46.36542" lon="5.75328">
        <ele>614.11</ele>
        <time>2019-10-06T12:26:37Z</time>
      </trkpt>
      <trkpt lat="46.36545" lon="5.753">
        <ele>611.75</ele>
        <time>2019-10-06T12:26:51Z</time>
      </trkpt>
      <trkpt lat="46.36547" lon="5.75266">
        <ele>608.12</ele>
        <time>2019-10-06T12:27:07Z</time>
      </trkpt>
      <trkpt lat="46.36542" lon="5.75242">
        <ele>604.81</ele>
        <time>2019-10-06T12:27:20Z</time>
      </trkpt>
      <trkpt lat="46.36527" lon="5.75221">
        <ele>602.37</ele>
        <time>2019-10-06T12:27:36Z</time>
      </trkpt>
      <trkpt lat="46.36513" lon="5.75206">
        <ele>599.87</ele>
        <time>2019-10-06T12:27:49Z</time>
      </trkpt>
      <trkpt lat="46.3651" lon="5.75199">
        <ele>599.06</ele>
        <time>2019-10-06T12:27:53Z</time>
      </trkpt>
      <trkpt lat="46.36494" lon="5.75172">
        <ele>598.47</ele>
        <time>2019-10-06T12:28:08Z</time>
      </trkpt>
      <trkpt lat="46.36494" lon="5.75171">
        <ele>598.5</ele>
        <time>2019-10-06T12:28:09Z</time>
      </trkpt>
      <trkpt lat="46.36492" lon="5.75165">
        <ele>598.56</ele>
        <time>2019-10-06T12:28:13Z</time>
      </trkpt>
      <trkpt lat="46.36473" lon="5.75142">
        <ele>598.74</ele>
        <time>2019-10-06T12:28:29Z</time>
      </trkpt>
      <trkpt lat="46.36452" lon="5.75119">
        <ele>598.95</ele>
        <time>2019-10-06T12:28:47Z</time>
      </trkpt>
      <trkpt lat="46.3645" lon="5.75116">
        <ele>598.98</ele>
        <time>2019-10-06T12:28:49Z</time>
      </trkpt>
      <trkpt lat="46.36445" lon="5.75109">
        <ele>599.04</ele>
        <time>2019-10-06T12:28:54Z</time>
      </trkpt>
      <trkpt lat="46.36424" lon="5.75095">
        <ele>598.45</ele>
        <time>2019-10-06T12:29:09Z</time>
      </trkpt>
      <trkpt lat="46.3641" lon="5.75086">
        <ele>597.78</ele>
        <time>2019-10-06T12:29:20Z</time>
      </trkpt>
      <trkpt lat="46.36405" lon="5.75083">
        <ele>597.83</ele>
        <time>2019-10-06T12:29:24Z</time>
      </trkpt>
      <trkpt lat="46.36401" lon="5.7508">
        <ele>596.97</ele>
        <time>2019-10-06T12:29:28Z</time>
      </trkpt>
      <trkpt lat="46.36387" lon="5.75066">
        <ele>594.33</ele>
        <time>2019-10-06T12:29:41Z</time>
      </trkpt>
      <trkpt lat="46.3637" lon="5.75044">
        <ele>591.05</ele>
        <time>2019-10-06T12:29:56Z</time>
      </trkpt>
      <trkpt lat="46.36354" lon="5.7503">
        <ele>588.47</ele>
        <time>2019-10-06T12:30:11Z</time>
      </trkpt>
      <trkpt lat="46.36348" lon="5.75024">
        <ele>588.56</ele>
        <time>2019-10-06T12:30:16Z</time>
      </trkpt>
      <trkpt lat="46.36342" lon="5.75007">
        <ele>585.95</ele>
        <time>2019-10-06T12:30:27Z</time>
      </trkpt>
      <trkpt lat="46.36344" lon="5.74992">
        <ele>585.04</ele>
        <time>2019-10-06T12:30:35Z</time>
      </trkpt>
      <trkpt lat="46.36349" lon="5.74984">
        <ele>583.48</ele>
        <time>2019-10-06T12:30:41Z</time>
      </trkpt>
      <trkpt lat="46.36367" lon="5.74964">
        <ele>582.11</ele>
        <time>2019-10-06T12:30:56Z</time>
      </trkpt>
      <trkpt lat="46.36379" lon="5.74952">
        <ele>580.56</ele>
        <time>2019-10-06T12:31:07Z</time>
      </trkpt>
      <trkpt lat="46.36396" lon="5.74952">
        <ele>579.17</ele>
        <time>2019-10-06T12:31:20Z</time>
      </trkpt>
      <trkpt lat="46.36405" lon="5.74942">
        <ele>578.41</ele>
        <time>2019-10-06T12:31:28Z</time>
      </trkpt>
      <trkpt lat="46.36401" lon="5.74919">
        <ele>578.51</ele>
        <time>2019-10-06T12:31:42Z</time>
      </trkpt>
      <trkpt lat="46.364" lon="5.74916">
        <ele>580.86</ele>
        <time>2019-10-06T12:31:45Z</time>
      </trkpt>
      <trkpt lat="46.36398" lon="5.74912">
        <ele>581.03</ele>
        <time>2019-10-06T12:31:48Z</time>
      </trkpt>
      <trkpt lat="46.36395" lon="5.74906">
        <ele>581.79</ele>
        <time>2019-10-06T12:31:53Z</time>
      </trkpt>
      <trkpt lat="46.36392" lon="5.749">
        <ele>581.82</ele>
        <time>2019-10-06T12:31:57Z</time>
      </trkpt>
      <trkpt lat="46.36382" lon="5.74878">
        <ele>581.88</ele>
        <time>2019-10-06T12:32:12Z</time>
      </trkpt>
      <trkpt lat="46.36377" lon="5.74874">
        <ele>579.68</ele>
        <time>2019-10-06T12:32:16Z</time>
      </trkpt>
      <trkpt lat="46.36371" lon="5.74868">
        <ele>579.64</ele>
        <time>2019-10-06T12:32:21Z</time>
      </trkpt>
      <trkpt lat="46.36354" lon="5.74847">
        <ele>578.02</ele>
        <time>2019-10-06T12:32:37Z</time>
      </trkpt>
      <trkpt lat="46.36352" lon="5.74843">
        <ele>578.05</ele>
        <time>2019-10-06T12:32:39Z</time>
      </trkpt>
      <trkpt lat="46.36342" lon="5.7482">
        <ele>576.55</ele>
        <time>2019-10-06T12:32:52Z</time>
      </trkpt>
      <trkpt lat="46.36335" lon="5.74792">
        <ele>574.92</ele>
        <time>2019-10-06T12:33:06Z</time>
      </trkpt>
      <trkpt lat="46.36325" lon="5.74767">
        <ele>574.19</ele>
        <time>2019-10-06T12:33:19Z</time>
      </trkpt>
      <trkpt lat="46.36311" lon="5.74745">
        <ele>572.24</ele>
        <time>2019-10-06T12:33:33Z</time>
      </trkpt>
      <trkpt lat="46.36306" lon="5.74736">
        <ele>571.63</ele>
        <time>2019-10-06T12:33:39Z</time>
      </trkpt>
      <trkpt lat="46.36294" lon="5.74704">
        <ele>570.13</ele>
        <time>2019-10-06T12:33:57Z</time>
      </trkpt>
      <trkpt lat="46.36283" lon="5.74681">
        <ele>568.47</ele>
        <time>2019-10-06T12:34:11Z</time>
      </trkpt>
      <trkpt lat="46.36277" lon="5.74675">
        <ele>567.86</ele>
        <time>2019-10-06T12:34:17Z</time>
      </trkpt>
      <trkpt lat="46.36272" lon="5.74647">
        <ele>567.11</ele>
        <time>2019-10-06T12:34:31Z</time>
      </trkpt>
      <trkpt lat="46.36273" lon="5.74643">
        <ele>567.15</ele>
        <time>2019-10-06T12:34:33Z</time>
      </trkpt>
      <trkpt lat="46.36274" lon="5.74634">
        <ele>567.23</ele>
        <time>2019-10-06T12:34:38Z</time>
      </trkpt>
      <trkpt lat="46.36275" lon="5.74631">
        <ele>567.25</ele>
        <time>2019-10-06T12:34:40Z</time>
      </trkpt>
      <trkpt lat="46.36274" lon="5.74629">
        <ele>566.49</ele>
        <time>2019-10-06T12:34:43Z</time>
      </trkpt>
      <trkpt lat="46.36266" lon="5.74628">
        <ele>566.61</ele>
        <time>2019-10-06T12:34:58Z</time>
      </trkpt>
      <trkpt lat="46.36259" lon="5.74624">
        <ele>565.88</ele>
        <time>2019-10-06T12:35:14Z</time>
      </trkpt>
      <trkpt lat="46.36262" lon="5.74646">
        <ele>566.08</ele>
        <time>2019-10-06T12:35:29Z</time>
      </trkpt>
      <trkpt lat="46.36268" lon="5.74646">
        <ele>566.17</ele>
        <time>2019-10-06T12:35:35Z</time>
      </trkpt>
      <trkpt lat="46.3627" lon="5.74647">
        <ele>566.22</ele>
        <time>2019-10-06T12:35:38Z</time>
      </trkpt>
      <trkpt lat="46.36273" lon="5.74643">
        <ele>568.67</ele>
        <time>2019-10-06T12:35:44Z</time>
      </trkpt>
      <trkpt lat="46.36278" lon="5.7464">
        <ele>569.69</ele>
        <time>2019-10-06T12:36:03Z</time>
      </trkpt>
      <trkpt lat="46.36278" lon="5.7464">
        <ele>570.71</ele>
        <time>2019-10-06T12:36:27Z</time>
      </trkpt>
      <trkpt lat="46.36278" lon="5.74639">
        <ele>570.97</ele>
        <time>2019-10-06T12:37:09Z</time>
      </trkpt>
      <trkpt lat="46.36278" lon="5.74638">
        <ele>571.28</ele>
        <time>2019-10-06T12:37:48Z</time>
      </trkpt>
      <trkpt lat="46.3628" lon="5.74636">
        <ele>571.6</ele>
        <time>2019-10-06T12:38:33Z</time>
      </trkpt>
      <trkpt lat="46.3628" lon="5.74638">
        <ele>572.63</ele>
        <time>2019-10-06T12:39:18Z</time>
      </trkpt>
      <trkpt lat="46.36282" lon="5.74641">
        <ele>572.8</ele>
        <time>2019-10-06T12:39:57Z</time>
      </trkpt>
      <trkpt lat="46.36283" lon="5.74639">
        <ele>572.92</ele>
        <time>2019-10-06T12:40:35Z</time>
      </trkpt>
      <trkpt lat="46.36285" lon="5.74638">
        <ele>573.03</ele>
        <time>2019-10-06T12:41:18Z</time>
      </trkpt>
      <trkpt lat="46.36285" lon="5.74638">
        <ele>573.11</ele>
        <time>2019-10-06T12:42:03Z</time>
      </trkpt>
      <trkpt lat="46.36281" lon="5.74638">
        <ele>573.15</ele>
        <time>2019-10-06T12:42:43Z</time>
      </trkpt>
      <trkpt lat="46.36285" lon="5.74638">
        <ele>573.18</ele>
        <time>2019-10-06T12:43:27Z</time>
      </trkpt>
      <trkpt lat="46.36284" lon="5.74639">
        <ele>574.03</ele>
        <time>2019-10-06T12:44:06Z</time>
      </trkpt>
      <trkpt lat="46.36284" lon="5.74641">
        <ele>574.12</ele>
        <time>2019-10-06T12:44:47Z</time>
      </trkpt>
      <trkpt lat="46.36283" lon="5.74638">
        <ele>574.16</ele>
        <time>2019-10-06T12:45:25Z</time>
      </trkpt>
      <trkpt lat="46.3628" lon="5.74638">
        <ele>574.16</ele>
        <time>2019-10-06T12:45:51Z</time>
      </trkpt>
      <trkpt lat="46.36276" lon="5.7463">
        <ele>574.13</ele>
        <time>2019-10-06T12:46:02Z</time>
      </trkpt>
      <trkpt lat="46.36271" lon="5.74623">
        <ele>574.09</ele>
        <time>2019-10-06T12:46:09Z</time>
      </trkpt>
      <trkpt lat="46.36268" lon="5.74623">
        <ele>571.75</ele>
        <time>2019-10-06T12:46:12Z</time>
      </trkpt>
      <trkpt lat="46.36264" lon="5.74622">
        <ele>571.77</ele>
        <time>2019-10-06T12:46:17Z</time>
      </trkpt>
      <trkpt lat="46.3626" lon="5.74624">
        <ele>571.81</ele>
        <time>2019-10-06T12:46:21Z</time>
      </trkpt>
      <trkpt lat="46.36259" lon="5.74641">
        <ele>571.91</ele>
        <time>2019-10-06T12:46:33Z</time>
      </trkpt>
      <trkpt lat="46.36269" lon="5.74662">
        <ele>572.07</ele>
        <time>2019-10-06T12:46:49Z</time>
      </trkpt>
      <trkpt lat="46.36274" lon="5.74668">
        <ele>572.07</ele>
        <time>2019-10-06T12:46:55Z</time>
      </trkpt>
      <trkpt lat="46.36282" lon="5.74674">
        <ele>574.36</ele>
        <time>2019-10-06T12:47:03Z</time>
      </trkpt>
      <trkpt lat="46.36289" lon="5.74683">
        <ele>574.33</ele>
        <time>2019-10-06T12:47:11Z</time>
      </trkpt>
      <trkpt lat="46.36296" lon="5.74711">
        <ele>576.06</ele>
        <time>2019-10-06T12:47:26Z</time>
      </trkpt>
      <trkpt lat="46.36304" lon="5.74726">
        <ele>576.79</ele>
        <time>2019-10-06T12:47:38Z</time>
      </trkpt>
      <trkpt lat="46.36312" lon="5.74742">
        <ele>577.65</ele>
        <time>2019-10-06T12:47:49Z</time>
      </trkpt>
      <trkpt lat="46.36316" lon="5.74748">
        <ele>578.46</ele>
        <time>2019-10-06T12:47:53Z</time>
      </trkpt>
      <trkpt lat="46.36329" lon="5.74769">
        <ele>580.03</ele>
        <time>2019-10-06T12:48:11Z</time>
      </trkpt>
      <trkpt lat="46.36335" lon="5.74781">
        <ele>580.84</ele>
        <time>2019-10-06T12:48:20Z</time>
      </trkpt>
      <trkpt lat="46.36342" lon="5.74804">
        <ele>582.58</ele>
        <time>2019-10-06T12:48:36Z</time>
      </trkpt>
      <trkpt lat="46.36351" lon="5.74826">
        <ele>584.3</ele>
        <time>2019-10-06T12:48:51Z</time>
      </trkpt>
      <trkpt lat="46.36358" lon="5.74841">
        <ele>585.23</ele>
        <time>2019-10-06T12:49:05Z</time>
      </trkpt>
      <trkpt lat="46.36376" lon="5.7486">
        <ele>586.1</ele>
        <time>2019-10-06T12:49:23Z</time>
      </trkpt>
      <trkpt lat="46.3638" lon="5.74863">
        <ele>586.86</ele>
        <time>2019-10-06T12:49:25Z</time>
      </trkpt>
      <trkpt lat="46.36387" lon="5.74885">
        <ele>588.65</ele>
        <time>2019-10-06T12:49:40Z</time>
      </trkpt>
      <trkpt lat="46.36387" lon="5.74887">
        <ele>588.63</ele>
        <time>2019-10-06T12:49:41Z</time>
      </trkpt>
      <trkpt lat="46.36398" lon="5.74892">
        <ele>590.19</ele>
        <time>2019-10-06T12:49:59Z</time>
      </trkpt>
      <trkpt lat="46.36399" lon="5.74888">
        <ele>591.15</ele>
        <time>2019-10-06T12:50:02Z</time>
      </trkpt>
      <trkpt lat="46.36401" lon="5.74878">
        <ele>594.23</ele>
        <time>2019-10-06T12:50:15Z</time>
      </trkpt>
      <trkpt lat="46.36405" lon="5.7486">
        <ele>597.07</ele>
        <time>2019-10-06T12:50:27Z</time>
      </trkpt>
      <trkpt lat="46.36404" lon="5.74843">
        <ele>600.72</ele>
        <time>2019-10-06T12:50:41Z</time>
      </trkpt>
      <trkpt lat="46.36399" lon="5.74824">
        <ele>603.24</ele>
        <time>2019-10-06T12:50:57Z</time>
      </trkpt>
      <trkpt lat="46.36393" lon="5.74811">
        <ele>606.8</ele>
        <time>2019-10-06T12:51:10Z</time>
      </trkpt>
      <trkpt lat="46.36387" lon="5.74794">
        <ele>610.25</ele>
        <time>2019-10-06T12:51:27Z</time>
      </trkpt>
      <trkpt lat="46.36384" lon="5.74786">
        <ele>611.22</ele>
        <time>2019-10-06T12:51:35Z</time>
      </trkpt>
      <trkpt lat="46.36392" lon="5.74775">
        <ele>613.56</ele>
        <time>2019-10-06T12:51:49Z</time>
      </trkpt>
      <trkpt lat="46.36402" lon="5.74769">
        <ele>616.18</ele>
        <time>2019-10-06T12:52:03Z</time>
      </trkpt>
      <trkpt lat="46.36413" lon="5.74756">
        <ele>619.06</ele>
        <time>2019-10-06T12:52:17Z</time>
      </trkpt>
      <trkpt lat="46.36415" lon="5.74754">
        <ele>619.07</ele>
        <time>2019-10-06T12:52:20Z</time>
      </trkpt>
      <trkpt lat="46.36427" lon="5.74745">
        <ele>622.43</ele>
        <time>2019-10-06T12:52:36Z</time>
      </trkpt>
      <trkpt lat="46.36435" lon="5.74734">
        <ele>625.83</ele>
        <time>2019-10-06T12:52:49Z</time>
      </trkpt>
      <trkpt lat="46.3644" lon="5.74728">
        <ele>626.75</ele>
        <time>2019-10-06T12:52:56Z</time>
      </trkpt>
      <trkpt lat="46.36452" lon="5.74716">
        <ele>630.3</ele>
        <time>2019-10-06T12:53:13Z</time>
      </trkpt>
      <trkpt lat="46.36462" lon="5.74702">
        <ele>632.11</ele>
        <time>2019-10-06T12:53:28Z</time>
      </trkpt>
      <trkpt lat="46.36472" lon="5.74692">
        <ele>635.93</ele>
        <time>2019-10-06T12:53:43Z</time>
      </trkpt>
      <trkpt lat="46.36481" lon="5.74677">
        <ele>638.75</ele>
        <time>2019-10-06T12:54:00Z</time>
      </trkpt>
      <trkpt lat="46.36492" lon="5.74666">
        <ele>641.4</ele>
        <time>2019-10-06T12:54:14Z</time>
      </trkpt>
      <trkpt lat="46.36508" lon="5.74652">
        <ele>642.18</ele>
        <time>2019-10-06T12:54:32Z</time>
      </trkpt>
      <trkpt lat="46.3651" lon="5.74648">
        <ele>642.26</ele>
        <time>2019-10-06T12:54:49Z</time>
      </trkpt>
      <trkpt lat="46.36517" lon="5.74644">
        <ele>642.34</ele>
        <time>2019-10-06T12:55:06Z</time>
      </trkpt>
      <trkpt lat="46.36526" lon="5.7464">
        <ele>642.38</ele>
        <time>2019-10-06T12:55:24Z</time>
      </trkpt>
      <trkpt lat="46.36538" lon="5.7464">
        <ele>642.45</ele>
        <time>2019-10-06T12:55:43Z</time>
      </trkpt>
      <trkpt lat="46.3654" lon="5.74641">
        <ele>640.16</ele>
        <time>2019-10-06T12:55:46Z</time>
      </trkpt>
      <trkpt lat="46.36548" lon="5.7464">
        <ele>639.18</ele>
        <time>2019-10-06T12:56:01Z</time>
      </trkpt>
      <trkpt lat="46.36561" lon="5.74625">
        <ele>638.32</ele>
        <time>2019-10-06T12:56:20Z</time>
      </trkpt>
      <trkpt lat="46.3657" lon="5.74606">
        <ele>638.33</ele>
        <time>2019-10-06T12:56:38Z</time>
      </trkpt>
      <trkpt lat="46.3658" lon="5.74574">
        <ele>638.38</ele>
        <time>2019-10-06T12:56:59Z</time>
      </trkpt>
      <trkpt lat="46.36598" lon="5.74552">
        <ele>637.62</ele>
        <time>2019-10-06T12:57:19Z</time>
      </trkpt>
      <trkpt lat="46.366" lon="5.74551">
        <ele>635.02</ele>
        <time>2019-10-06T12:57:24Z</time>
      </trkpt>
      <trkpt lat="46.366" lon="5.74551">
        <ele>637.79</ele>
        <time>2019-10-06T12:57:26Z</time>
      </trkpt>
      <trkpt lat="46.36606" lon="5.74548">
        <ele>627.55</ele>
        <time>2019-10-06T12:57:37Z</time>
      </trkpt>
      <trkpt lat="46.36607" lon="5.74547">
        <ele>631.66</ele>
        <time>2019-10-06T12:57:38Z</time>
      </trkpt>
      <trkpt lat="46.36607" lon="5.74547">
        <ele>644.2</ele>
        <time>2019-10-06T12:57:39Z</time>
      </trkpt>
      <trkpt lat="46.36608" lon="5.74546">
        <ele>641.15</ele>
        <time>2019-10-06T12:57:40Z</time>
      </trkpt>
      <trkpt lat="46.36608" lon="5.74546">
        <ele>637.34</ele>
        <time>2019-10-06T12:57:41Z</time>
      </trkpt>
      <trkpt lat="46.36609" lon="5.74545">
        <ele>637.36</ele>
        <time>2019-10-06T12:57:42Z</time>
      </trkpt>
      <trkpt lat="46.36611" lon="5.74543">
        <ele>635.76</ele>
        <time>2019-10-06T12:57:45Z</time>
      </trkpt>
      <trkpt lat="46.36624" lon="5.74536">
        <ele>635.76</ele>
        <time>2019-10-06T12:58:03Z</time>
      </trkpt>
      <trkpt lat="46.36638" lon="5.74524">
        <ele>635.8</ele>
        <time>2019-10-06T12:58:19Z</time>
      </trkpt>
      <trkpt lat="46.36651" lon="5.74514">
        <ele>635.8</ele>
        <time>2019-10-06T12:58:34Z</time>
      </trkpt>
      <trkpt lat="46.36664" lon="5.74504">
        <ele>635.75</ele>
        <time>2019-10-06T12:58:49Z</time>
      </trkpt>
      <trkpt lat="46.36667" lon="5.74502">
        <ele>635.72</ele>
        <time>2019-10-06T12:58:52Z</time>
      </trkpt>
      <trkpt lat="46.36684" lon="5.74497">
        <ele>635.6</ele>
        <time>2019-10-06T12:59:13Z</time>
      </trkpt>
      <trkpt lat="46.36693" lon="5.74496">
        <ele>637.97</ele>
        <time>2019-10-06T12:59:23Z</time>
      </trkpt>
      <trkpt lat="46.36707" lon="5.74497">
        <ele>638.76</ele>
        <time>2019-10-06T12:59:40Z</time>
      </trkpt>
      <trkpt lat="46.36718" lon="5.74495">
        <ele>640.08</ele>
        <time>2019-10-06T12:59:54Z</time>
      </trkpt>
      <trkpt lat="46.36734" lon="5.74494">
        <ele>640.84</ele>
        <time>2019-10-06T13:00:11Z</time>
      </trkpt>
      <trkpt lat="46.3675" lon="5.74496">
        <ele>641.63</ele>
        <time>2019-10-06T13:00:27Z</time>
      </trkpt>
      <trkpt lat="46.36766" lon="5.74499">
        <ele>642.38</ele>
        <time>2019-10-06T13:00:44Z</time>
      </trkpt>
      <trkpt lat="46.36783" lon="5.74509">
        <ele>643.18</ele>
        <time>2019-10-06T13:01:03Z</time>
      </trkpt>
      <trkpt lat="46.368" lon="5.74519">
        <ele>643.97</ele>
        <time>2019-10-06T13:01:20Z</time>
      </trkpt>
      <trkpt lat="46.36801" lon="5.74519">
        <ele>638.68</ele>
        <time>2019-10-06T13:01:21Z</time>
      </trkpt>
      <trkpt lat="46.36802" lon="5.74521">
        <ele>645.02</ele>
        <time>2019-10-06T13:01:22Z</time>
      </trkpt>
      <trkpt lat="46.36807" lon="5.74525">
        <ele>641.95</ele>
        <time>2019-10-06T13:01:27Z</time>
      </trkpt>
      <trkpt lat="46.36807" lon="5.74526">
        <ele>645.29</ele>
        <time>2019-10-06T13:01:28Z</time>
      </trkpt>
      <trkpt lat="46.3681" lon="5.7453">
        <ele>639.76</ele>
        <time>2019-10-06T13:01:32Z</time>
      </trkpt>
      <trkpt lat="46.3681" lon="5.74531">
        <ele>644.62</ele>
        <time>2019-10-06T13:01:33Z</time>
      </trkpt>
      <trkpt lat="46.36818" lon="5.74544">
        <ele>644.55</ele>
        <time>2019-10-06T13:01:50Z</time>
      </trkpt>
      <trkpt lat="46.36826" lon="5.74553">
        <ele>642.23</ele>
        <time>2019-10-06T13:01:58Z</time>
      </trkpt>
      <trkpt lat="46.36829" lon="5.74561">
        <ele>640.82</ele>
        <time>2019-10-06T13:02:05Z</time>
      </trkpt>
      <trkpt lat="46.36836" lon="5.74566">
        <ele>639.3</ele>
        <time>2019-10-06T13:02:12Z</time>
      </trkpt>
      <trkpt lat="46.36842" lon="5.74573">
        <ele>641.62</ele>
        <time>2019-10-06T13:02:20Z</time>
      </trkpt>
      <trkpt lat="46.3685" lon="5.74582">
        <ele>635.49</ele>
        <time>2019-10-06T13:02:31Z</time>
      </trkpt>
      <trkpt lat="46.3685" lon="5.74582">
        <ele>635.49</ele>
        <time>2019-10-06T13:02:32Z</time>
      </trkpt>
      <trkpt lat="46.36851" lon="5.74582">
        <ele>643.42</ele>
        <time>2019-10-06T13:02:33Z</time>
      </trkpt>
      <trkpt lat="46.36852" lon="5.74582">
        <ele>643.42</ele>
        <time>2019-10-06T13:02:34Z</time>
      </trkpt>
      <trkpt lat="46.36857" lon="5.74583">
        <ele>640.89</ele>
        <time>2019-10-06T13:02:39Z</time>
      </trkpt>
      <trkpt lat="46.36868" lon="5.74603">
        <ele>640.7</ele>
        <time>2019-10-06T13:02:58Z</time>
      </trkpt>
      <trkpt lat="46.36874" lon="5.74616">
        <ele>640.56</ele>
        <time>2019-10-06T13:03:07Z</time>
      </trkpt>
      <trkpt lat="46.36878" lon="5.74626">
        <ele>638.13</ele>
        <time>2019-10-06T13:03:14Z</time>
      </trkpt>
      <trkpt lat="46.3688" lon="5.74629">
        <ele>640.51</ele>
        <time>2019-10-06T13:03:16Z</time>
      </trkpt>
      <trkpt lat="46.36891" lon="5.74652">
        <ele>640.3</ele>
        <time>2019-10-06T13:03:32Z</time>
      </trkpt>
      <trkpt lat="46.36899" lon="5.74666">
        <ele>641.05</ele>
        <time>2019-10-06T13:03:48Z</time>
      </trkpt>
      <trkpt lat="46.36905" lon="5.74669">
        <ele>640.95</ele>
        <time>2019-10-06T13:03:53Z</time>
      </trkpt>
      <trkpt lat="46.36933" lon="5.74671">
        <ele>640.74</ele>
        <time>2019-10-06T13:04:08Z</time>
      </trkpt>
      <trkpt lat="46.36957" lon="5.74681">
        <ele>641.43</ele>
        <time>2019-10-06T13:04:24Z</time>
      </trkpt>
      <trkpt lat="46.36963" lon="5.74685">
        <ele>635.59</ele>
        <time>2019-10-06T13:04:28Z</time>
      </trkpt>
      <trkpt lat="46.36965" lon="5.74685">
        <ele>642.89</ele>
        <time>2019-10-06T13:04:29Z</time>
      </trkpt>
      <trkpt lat="46.36966" lon="5.74686">
        <ele>642.87</ele>
        <time>2019-10-06T13:04:30Z</time>
      </trkpt>
      <trkpt lat="46.36979" lon="5.74689">
        <ele>642.82</ele>
        <time>2019-10-06T13:04:40Z</time>
      </trkpt>
      <trkpt lat="46.36983" lon="5.74689">
        <ele>640.51</ele>
        <time>2019-10-06T13:04:43Z</time>
      </trkpt>
      <trkpt lat="46.3699" lon="5.74692">
        <ele>640.5</ele>
        <time>2019-10-06T13:04:48Z</time>
      </trkpt>
      <trkpt lat="46.36995" lon="5.74692">
        <ele>640.49</ele>
        <time>2019-10-06T13:04:51Z</time>
      </trkpt>
      <trkpt lat="46.37009" lon="5.74694">
        <ele>639.72</ele>
        <time>2019-10-06T13:05:03Z</time>
      </trkpt>
      <trkpt lat="46.37027" lon="5.74701">
        <ele>638.9</ele>
        <time>2019-10-06T13:05:16Z</time>
      </trkpt>
      <trkpt lat="46.37045" lon="5.74698">
        <ele>637.39</ele>
        <time>2019-10-06T13:05:28Z</time>
      </trkpt>
      <trkpt lat="46.37064" lon="5.74688">
        <ele>637.46</ele>
        <time>2019-10-06T13:05:42Z</time>
      </trkpt>
      <trkpt lat="46.37073" lon="5.74677">
        <ele>637.59</ele>
        <time>2019-10-06T13:05:57Z</time>
      </trkpt>
      <trkpt lat="46.37073" lon="5.74676">
        <ele>637.59</ele>
        <time>2019-10-06T13:05:58Z</time>
      </trkpt>
      <trkpt lat="46.3708" lon="5.74665">
        <ele>640.19</ele>
        <time>2019-10-06T13:06:08Z</time>
      </trkpt>
      <trkpt lat="46.37089" lon="5.74654">
        <ele>642.08</ele>
        <time>2019-10-06T13:06:21Z</time>
      </trkpt>
      <trkpt lat="46.37097" lon="5.74646">
        <ele>643.8</ele>
        <time>2019-10-06T13:06:31Z</time>
      </trkpt>
      <trkpt lat="46.37104" lon="5.74627">
        <ele>647.17</ele>
        <time>2019-10-06T13:06:49Z</time>
      </trkpt>
      <trkpt lat="46.37108" lon="5.74599">
        <ele>648.97</ele>
        <time>2019-10-06T13:07:08Z</time>
      </trkpt>
      <trkpt lat="46.37112" lon="5.74574">
        <ele>652.58</ele>
        <time>2019-10-06T13:07:26Z</time>
      </trkpt>
      <trkpt lat="46.37126" lon="5.74558">
        <ele>655.31</ele>
        <time>2019-10-06T13:07:43Z</time>
      </trkpt>
      <trkpt lat="46.37139" lon="5.74541">
        <ele>657.91</ele>
        <time>2019-10-06T13:08:00Z</time>
      </trkpt>
      <trkpt lat="46.37148" lon="5.74518">
        <ele>659.7</ele>
        <time>2019-10-06T13:08:16Z</time>
      </trkpt>
      <trkpt lat="46.37147" lon="5.74496">
        <ele>660.63</ele>
        <time>2019-10-06T13:08:32Z</time>
      </trkpt>
      <trkpt lat="46.37146" lon="5.74493">
        <ele>660.63</ele>
        <time>2019-10-06T13:08:34Z</time>
      </trkpt>
      <trkpt lat="46.37148" lon="5.7447">
        <ele>661.59</ele>
        <time>2019-10-06T13:08:49Z</time>
      </trkpt>
      <trkpt lat="46.37149" lon="5.74454">
        <ele>665.08</ele>
        <time>2019-10-06T13:09:02Z</time>
      </trkpt>
      <trkpt lat="46.37156" lon="5.74431">
        <ele>668.55</ele>
        <time>2019-10-06T13:09:18Z</time>
      </trkpt>
      <trkpt lat="46.37162" lon="5.74402">
        <ele>671.09</ele>
        <time>2019-10-06T13:09:39Z</time>
      </trkpt>
      <trkpt lat="46.37164" lon="5.74378">
        <ele>672.73</ele>
        <time>2019-10-06T13:09:57Z</time>
      </trkpt>
      <trkpt lat="46.37165" lon="5.74354">
        <ele>676.13</ele>
        <time>2019-10-06T13:10:14Z</time>
      </trkpt>
      <trkpt lat="46.37166" lon="5.74336">
        <ele>677.91</ele>
        <time>2019-10-06T13:10:29Z</time>
      </trkpt>
      <trkpt lat="46.3717" lon="5.74318">
        <ele>679.54</ele>
        <time>2019-10-06T13:10:42Z</time>
      </trkpt>
      <trkpt lat="46.37175" lon="5.74304">
        <ele>681.08</ele>
        <time>2019-10-06T13:10:52Z</time>
      </trkpt>
      <trkpt lat="46.3718" lon="5.74284">
        <ele>682.65</ele>
        <time>2019-10-06T13:11:06Z</time>
      </trkpt>
      <trkpt lat="46.37184" lon="5.74257">
        <ele>684.98</ele>
        <time>2019-10-06T13:11:25Z</time>
      </trkpt>
      <trkpt lat="46.37186" lon="5.74225">
        <ele>686.48</ele>
        <time>2019-10-06T13:11:46Z</time>
      </trkpt>
      <trkpt lat="46.37186" lon="5.742">
        <ele>687.93</ele>
        <time>2019-10-06T13:12:00Z</time>
      </trkpt>
      <trkpt lat="46.37186" lon="5.74194">
        <ele>687.91</ele>
        <time>2019-10-06T13:12:03Z</time>
      </trkpt>
      <trkpt lat="46.37192" lon="5.74176">
        <ele>689.85</ele>
        <time>2019-10-06T13:12:18Z</time>
      </trkpt>
      <trkpt lat="46.37205" lon="5.74153">
        <ele>690.57</ele>
        <time>2019-10-06T13:12:34Z</time>
      </trkpt>
      <trkpt lat="46.37215" lon="5.74127">
        <ele>691.23</ele>
        <time>2019-10-06T13:12:52Z</time>
      </trkpt>
      <trkpt lat="46.37223" lon="5.74105">
        <ele>691.91</ele>
        <time>2019-10-06T13:13:04Z</time>
      </trkpt>
      <trkpt lat="46.37224" lon="5.74103">
        <ele>691.91</ele>
        <time>2019-10-06T13:13:06Z</time>
      </trkpt>
      <trkpt lat="46.37224" lon="5.74099">
        <ele>691.9</ele>
        <time>2019-10-06T13:13:08Z</time>
      </trkpt>
      <trkpt lat="46.37231" lon="5.74087">
        <ele>691.83</ele>
        <time>2019-10-06T13:13:22Z</time>
      </trkpt>
      <trkpt lat="46.37237" lon="5.74081">
        <ele>692.55</ele>
        <time>2019-10-06T13:13:40Z</time>
      </trkpt>
      <trkpt lat="46.37247" lon="5.74087">
        <ele>690.22</ele>
        <time>2019-10-06T13:13:57Z</time>
      </trkpt>
      <trkpt lat="46.37261" lon="5.74092">
        <ele>689.38</ele>
        <time>2019-10-06T13:14:16Z</time>
      </trkpt>
      <trkpt lat="46.37262" lon="5.74092">
        <ele>689.38</ele>
        <time>2019-10-06T13:14:17Z</time>
      </trkpt>
      <trkpt lat="46.37284" lon="5.74097">
        <ele>689.37</ele>
        <time>2019-10-06T13:14:32Z</time>
      </trkpt>
      <trkpt lat="46.37288" lon="5.7411">
        <ele>688.59</ele>
        <time>2019-10-06T13:14:39Z</time>
      </trkpt>
      <trkpt lat="46.37302" lon="5.74127">
        <ele>687.71</ele>
        <time>2019-10-06T13:14:52Z</time>
      </trkpt>
      <trkpt lat="46.37315" lon="5.74134">
        <ele>687.74</ele>
        <time>2019-10-06T13:15:05Z</time>
      </trkpt>
      <trkpt lat="46.37326" lon="5.7414">
        <ele>690.16</ele>
        <time>2019-10-06T13:15:12Z</time>
      </trkpt>
      <trkpt lat="46.37346" lon="5.74152">
        <ele>690.95</ele>
        <time>2019-10-06T13:15:28Z</time>
      </trkpt>
      <trkpt lat="46.37355" lon="5.74167">
        <ele>691.84</ele>
        <time>2019-10-06T13:15:41Z</time>
      </trkpt>
      <trkpt lat="46.3736" lon="5.74183">
        <ele>691.88</ele>
        <time>2019-10-06T13:15:51Z</time>
      </trkpt>
      <trkpt lat="46.37363" lon="5.74195">
        <ele>691.95</ele>
        <time>2019-10-06T13:16:07Z</time>
      </trkpt>
      <trkpt lat="46.3737" lon="5.74222">
        <ele>693.69</ele>
        <time>2019-10-06T13:16:28Z</time>
      </trkpt>
      <trkpt lat="46.37377" lon="5.74238">
        <ele>693.74</ele>
        <time>2019-10-06T13:16:39Z</time>
      </trkpt>
      <trkpt lat="46.37385" lon="5.7426">
        <ele>693.76</ele>
        <time>2019-10-06T13:16:52Z</time>
      </trkpt>
      <trkpt lat="46.37393" lon="5.74278">
        <ele>691.25</ele>
        <time>2019-10-06T13:17:04Z</time>
      </trkpt>
      <trkpt lat="46.374" lon="5.74293">
        <ele>689.68</ele>
        <time>2019-10-06T13:17:14Z</time>
      </trkpt>
      <trkpt lat="46.37404" lon="5.74299">
        <ele>687.72</ele>
        <time>2019-10-06T13:17:20Z</time>
      </trkpt>
      <trkpt lat="46.37408" lon="5.74316">
        <ele>686.88</ele>
        <time>2019-10-06T13:17:38Z</time>
      </trkpt>
      <trkpt lat="46.3741" lon="5.74319">
        <ele>685.4</ele>
        <time>2019-10-06T13:17:46Z</time>
      </trkpt>
      <trkpt lat="46.37416" lon="5.74327">
        <ele>685.5</ele>
        <time>2019-10-06T13:18:03Z</time>
      </trkpt>
      <trkpt lat="46.37431" lon="5.74328">
        <ele>685.52</ele>
        <time>2019-10-06T13:18:20Z</time>
      </trkpt>
      <trkpt lat="46.37433" lon="5.74326">
        <ele>685.59</ele>
        <time>2019-10-06T13:18:22Z</time>
      </trkpt>
      <trkpt lat="46.37451" lon="5.74317">
        <ele>685.53</ele>
        <time>2019-10-06T13:18:40Z</time>
      </trkpt>
      <trkpt lat="46.37461" lon="5.74309">
        <ele>683.8</ele>
        <time>2019-10-06T13:18:49Z</time>
      </trkpt>
      <trkpt lat="46.37476" lon="5.74299">
        <ele>682.21</ele>
        <time>2019-10-06T13:19:05Z</time>
      </trkpt>
      <trkpt lat="46.37489" lon="5.74293">
        <ele>678.24</ele>
        <time>2019-10-06T13:19:17Z</time>
      </trkpt>
      <trkpt lat="46.37501" lon="5.74287">
        <ele>674.47</ele>
        <time>2019-10-06T13:19:33Z</time>
      </trkpt>
      <trkpt lat="46.37512" lon="5.74283">
        <ele>671.11</ele>
        <time>2019-10-06T13:19:46Z</time>
      </trkpt>
      <trkpt lat="46.37517" lon="5.74282">
        <ele>669.11</ele>
        <time>2019-10-06T13:19:53Z</time>
      </trkpt>
      <trkpt lat="46.37518" lon="5.74281">
        <ele>668.47</ele>
        <time>2019-10-06T13:19:59Z</time>
      </trkpt>
      <trkpt lat="46.37526" lon="5.74281">
        <ele>664.81</ele>
        <time>2019-10-06T13:20:15Z</time>
      </trkpt>
      <trkpt lat="46.3753" lon="5.74277">
        <ele>663.85</ele>
        <time>2019-10-06T13:20:23Z</time>
      </trkpt>
      <trkpt lat="46.37544" lon="5.74262">
        <ele>661.09</ele>
        <time>2019-10-06T13:20:41Z</time>
      </trkpt>
      <trkpt lat="46.37546" lon="5.7426">
        <ele>661.12</ele>
        <time>2019-10-06T13:20:43Z</time>
      </trkpt>
      <trkpt lat="46.37567" lon="5.74252">
        <ele>659.73</ele>
        <time>2019-10-06T13:21:02Z</time>
      </trkpt>
      <trkpt lat="46.37571" lon="5.74253">
        <ele>659.78</ele>
        <time>2019-10-06T13:21:06Z</time>
      </trkpt>
      <trkpt lat="46.37586" lon="5.74257">
        <ele>656.73</ele>
        <time>2019-10-06T13:21:19Z</time>
      </trkpt>
      <trkpt lat="46.37608" lon="5.74262">
        <ele>655.23</ele>
        <time>2019-10-06T13:21:36Z</time>
      </trkpt>
      <trkpt lat="46.37621" lon="5.74272">
        <ele>657.97</ele>
        <time>2019-10-06T13:21:50Z</time>
      </trkpt>
      <trkpt lat="46.37626" lon="5.74273">
        <ele>659.14</ele>
        <time>2019-10-06T13:21:59Z</time>
      </trkpt>
      <trkpt lat="46.37636" lon="5.74268">
        <ele>659.18</ele>
        <time>2019-10-06T13:22:09Z</time>
      </trkpt>
      <trkpt lat="46.37655" lon="5.74265">
        <ele>660.4</ele>
        <time>2019-10-06T13:22:29Z</time>
      </trkpt>
      <trkpt lat="46.37666" lon="5.7428">
        <ele>662.18</ele>
        <time>2019-10-06T13:22:42Z</time>
      </trkpt>
      <trkpt lat="46.37683" lon="5.74303">
        <ele>663.83</ele>
        <time>2019-10-06T13:22:59Z</time>
      </trkpt>
      <trkpt lat="46.37689" lon="5.74303">
        <ele>665.45</ele>
        <time>2019-10-06T13:23:15Z</time>
      </trkpt>
      <trkpt lat="46.37688" lon="5.74306">
        <ele>665.52</ele>
        <time>2019-10-06T13:23:33Z</time>
      </trkpt>
      <trkpt lat="46.37689" lon="5.74303">
        <ele>665.63</ele>
        <time>2019-10-06T13:24:01Z</time>
      </trkpt>
      <trkpt lat="46.37696" lon="5.74296">
        <ele>665.69</ele>
        <time>2019-10-06T13:24:08Z</time>
      </trkpt>
      <trkpt lat="46.37707" lon="5.74278">
        <ele>663.4</ele>
        <time>2019-10-06T13:24:23Z</time>
      </trkpt>
      <trkpt lat="46.37709" lon="5.74275">
        <ele>663.4</ele>
        <time>2019-10-06T13:24:25Z</time>
      </trkpt>
      <trkpt lat="46.37725" lon="5.74256">
        <ele>661.12</ele>
        <time>2019-10-06T13:24:41Z</time>
      </trkpt>
      <trkpt lat="46.3773" lon="5.7423">
        <ele>660.34</ele>
        <time>2019-10-06T13:24:57Z</time>
      </trkpt>
      <trkpt lat="46.3773" lon="5.74211">
        <ele>658.75</ele>
        <time>2019-10-06T13:25:14Z</time>
      </trkpt>
      <trkpt lat="46.37731" lon="5.74207">
        <ele>658.75</ele>
        <time>2019-10-06T13:25:16Z</time>
      </trkpt>
      <trkpt lat="46.37735" lon="5.742">
        <ele>657.82</ele>
        <time>2019-10-06T13:25:21Z</time>
      </trkpt>
      <trkpt lat="46.37755" lon="5.74192">
        <ele>657.11</ele>
        <time>2019-10-06T13:25:38Z</time>
      </trkpt>
      <trkpt lat="46.37772" lon="5.74179">
        <ele>657.14</ele>
        <time>2019-10-06T13:25:51Z</time>
      </trkpt>
      <trkpt lat="46.37784" lon="5.74167">
        <ele>657.01</ele>
        <time>2019-10-06T13:26:02Z</time>
      </trkpt>
      <trkpt lat="46.37786" lon="5.74166">
        <ele>657</ele>
        <time>2019-10-06T13:26:03Z</time>
      </trkpt>
      <trkpt lat="46.3779" lon="5.74158">
        <ele>659.22</ele>
        <time>2019-10-06T13:26:07Z</time>
      </trkpt>
      <trkpt lat="46.37794" lon="5.74152">
        <ele>659.19</ele>
        <time>2019-10-06T13:26:12Z</time>
      </trkpt>
      <trkpt lat="46.37806" lon="5.74143">
        <ele>659.07</ele>
        <time>2019-10-06T13:26:23Z</time>
      </trkpt>
      <trkpt lat="46.37823" lon="5.74127">
        <ele>658.89</ele>
        <time>2019-10-06T13:26:37Z</time>
      </trkpt>
      <trkpt lat="46.37828" lon="5.7412">
        <ele>658.89</ele>
        <time>2019-10-06T13:26:43Z</time>
      </trkpt>
      <trkpt lat="46.37829" lon="5.74117">
        <ele>658.88</ele>
        <time>2019-10-06T13:26:45Z</time>
      </trkpt>
      <trkpt lat="46.3783" lon="5.74094">
        <ele>658.62</ele>
        <time>2019-10-06T13:27:19Z</time>
      </trkpt>
      <trkpt lat="46.3783" lon="5.74091">
        <ele>658.61</ele>
        <time>2019-10-06T13:27:21Z</time>
      </trkpt>
      <trkpt lat="46.37842" lon="5.74075">
        <ele>658.53</ele>
        <time>2019-10-06T13:27:35Z</time>
      </trkpt>
      <trkpt lat="46.3785" lon="5.74063">
        <ele>658.45</ele>
        <time>2019-10-06T13:27:43Z</time>
      </trkpt>
      <trkpt lat="46.37857" lon="5.74054">
        <ele>655.91</ele>
        <time>2019-10-06T13:27:51Z</time>
      </trkpt>
      <trkpt lat="46.37868" lon="5.74036">
        <ele>654.93</ele>
        <time>2019-10-06T13:28:06Z</time>
      </trkpt>
      <trkpt lat="46.37868" lon="5.74035">
        <ele>653.68</ele>
        <time>2019-10-06T13:28:08Z</time>
      </trkpt>
      <trkpt lat="46.37869" lon="5.74032">
        <ele>650.13</ele>
        <time>2019-10-06T13:28:11Z</time>
      </trkpt>
      <trkpt lat="46.3787" lon="5.7403">
        <ele>654.89</ele>
        <time>2019-10-06T13:28:12Z</time>
      </trkpt>
      <trkpt lat="46.3787" lon="5.74028">
        <ele>649.96</ele>
        <time>2019-10-06T13:28:13Z</time>
      </trkpt>
      <trkpt lat="46.37871" lon="5.74027">
        <ele>656.82</ele>
        <time>2019-10-06T13:28:14Z</time>
      </trkpt>
      <trkpt lat="46.37872" lon="5.74026">
        <ele>652.43</ele>
        <time>2019-10-06T13:28:15Z</time>
      </trkpt>
      <trkpt lat="46.37875" lon="5.74023">
        <ele>651.81</ele>
        <time>2019-10-06T13:28:18Z</time>
      </trkpt>
      <trkpt lat="46.37876" lon="5.74023">
        <ele>651.82</ele>
        <time>2019-10-06T13:28:19Z</time>
      </trkpt>
      <trkpt lat="46.37879" lon="5.74022">
        <ele>655.83</ele>
        <time>2019-10-06T13:28:22Z</time>
      </trkpt>
      <trkpt lat="46.3788" lon="5.74021">
        <ele>655.7</ele>
        <time>2019-10-06T13:28:23Z</time>
      </trkpt>
      <trkpt lat="46.37882" lon="5.74019">
        <ele>653.38</ele>
        <time>2019-10-06T13:28:27Z</time>
      </trkpt>
      <trkpt lat="46.379" lon="5.74009">
        <ele>653.6</ele>
        <time>2019-10-06T13:28:44Z</time>
      </trkpt>
      <trkpt lat="46.3791" lon="5.74001">
        <ele>653.56</ele>
        <time>2019-10-06T13:28:59Z</time>
      </trkpt>
      <trkpt lat="46.37917" lon="5.73998">
        <ele>655.78</ele>
        <time>2019-10-06T13:29:14Z</time>
      </trkpt>
      <trkpt lat="46.37925" lon="5.73995">
        <ele>657.54</ele>
        <time>2019-10-06T13:29:32Z</time>
      </trkpt>
      <trkpt lat="46.37939" lon="5.73993">
        <ele>647.55</ele>
        <time>2019-10-06T13:29:44Z</time>
      </trkpt>
      <trkpt lat="46.37941" lon="5.73993">
        <ele>647.54</ele>
        <time>2019-10-06T13:29:45Z</time>
      </trkpt>
      <trkpt lat="46.37942" lon="5.73992">
        <ele>657.32</ele>
        <time>2019-10-06T13:29:46Z</time>
      </trkpt>
      <trkpt lat="46.37943" lon="5.73992">
        <ele>646.29</ele>
        <time>2019-10-06T13:29:47Z</time>
      </trkpt>
      <trkpt lat="46.37944" lon="5.73992">
        <ele>646.29</ele>
        <time>2019-10-06T13:29:48Z</time>
      </trkpt>
      <trkpt lat="46.37945" lon="5.73991">
        <ele>662.89</ele>
        <time>2019-10-06T13:29:49Z</time>
      </trkpt>
      <trkpt lat="46.37946" lon="5.73991">
        <ele>659.2</ele>
        <time>2019-10-06T13:29:50Z</time>
      </trkpt>
      <trkpt lat="46.37947" lon="5.73991">
        <ele>654.04</ele>
        <time>2019-10-06T13:29:51Z</time>
      </trkpt>
      <trkpt lat="46.37948" lon="5.73991">
        <ele>658.43</ele>
        <time>2019-10-06T13:29:52Z</time>
      </trkpt>
      <trkpt lat="46.37949" lon="5.73992">
        <ele>662.81</ele>
        <time>2019-10-06T13:29:54Z</time>
      </trkpt>
      <trkpt lat="46.37951" lon="5.73992">
        <ele>671.64</ele>
        <time>2019-10-06T13:29:55Z</time>
      </trkpt>
      <trkpt lat="46.37952" lon="5.73992">
        <ele>666.86</ele>
        <time>2019-10-06T13:29:56Z</time>
      </trkpt>
      <trkpt lat="46.37953" lon="5.73993">
        <ele>662.31</ele>
        <time>2019-10-06T13:29:57Z</time>
      </trkpt>
      <trkpt lat="46.37955" lon="5.73993">
        <ele>658.59</ele>
        <time>2019-10-06T13:29:59Z</time>
      </trkpt>
      <trkpt lat="46.37956" lon="5.73994">
        <ele>658.57</ele>
        <time>2019-10-06T13:30:00Z</time>
      </trkpt>
      <trkpt lat="46.37961" lon="5.73992">
        <ele>659.06</ele>
        <time>2019-10-06T13:30:17Z</time>
      </trkpt>
      <trkpt lat="46.37965" lon="5.73996">
        <ele>659.05</ele>
        <time>2019-10-06T13:30:23Z</time>
      </trkpt>
      <trkpt lat="46.37975" lon="5.74006">
        <ele>658.28</ele>
        <time>2019-10-06T13:30:34Z</time>
      </trkpt>
      <trkpt lat="46.37985" lon="5.74026">
        <ele>658.38</ele>
        <time>2019-10-06T13:30:50Z</time>
      </trkpt>
      <trkpt lat="46.3799" lon="5.74028">
        <ele>660.62</ele>
        <time>2019-10-06T13:30:59Z</time>
      </trkpt>
      <trkpt lat="46.37996" lon="5.74033">
        <ele>660.6</ele>
        <time>2019-10-06T13:31:08Z</time>
      </trkpt>
      <trkpt lat="46.38015" lon="5.74049">
        <ele>661.38</ele>
        <time>2019-10-06T13:31:25Z</time>
      </trkpt>
      <trkpt lat="46.38034" lon="5.74067">
        <ele>662.95</ele>
        <time>2019-10-06T13:31:42Z</time>
      </trkpt>
      <trkpt lat="46.38051" lon="5.74088">
        <ele>663.71</ele>
        <time>2019-10-06T13:32:01Z</time>
      </trkpt>
      <trkpt lat="46.38059" lon="5.74092">
        <ele>665.15</ele>
        <time>2019-10-06T13:32:16Z</time>
      </trkpt>
      <trkpt lat="46.38061" lon="5.74094">
        <ele>666.37</ele>
        <time>2019-10-06T13:32:19Z</time>
      </trkpt>
      <trkpt lat="46.38061" lon="5.74118">
        <ele>666.23</ele>
        <time>2019-10-06T13:32:35Z</time>
      </trkpt>
      <trkpt lat="46.38063" lon="5.74132">
        <ele>666.25</ele>
        <time>2019-10-06T13:32:49Z</time>
      </trkpt>
      <trkpt lat="46.38064" lon="5.74133">
        <ele>666.23</ele>
        <time>2019-10-06T13:32:55Z</time>
      </trkpt>
      <trkpt lat="46.38072" lon="5.74166">
        <ele>666.26</ele>
        <time>2019-10-06T13:33:14Z</time>
      </trkpt>
      <trkpt lat="46.38087" lon="5.74192">
        <ele>666.91</ele>
        <time>2019-10-06T13:33:32Z</time>
      </trkpt>
      <trkpt lat="46.38104" lon="5.74209">
        <ele>667.63</ele>
        <time>2019-10-06T13:33:49Z</time>
      </trkpt>
      <trkpt lat="46.38121" lon="5.74224">
        <ele>669.17</ele>
        <time>2019-10-06T13:34:05Z</time>
      </trkpt>
      <trkpt lat="46.38139" lon="5.74235">
        <ele>671.51</ele>
        <time>2019-10-06T13:34:22Z</time>
      </trkpt>
      <trkpt lat="46.38148" lon="5.74252">
        <ele>673.15</ele>
        <time>2019-10-06T13:34:37Z</time>
      </trkpt>
      <trkpt lat="46.38152" lon="5.74261">
        <ele>674.69</ele>
        <time>2019-10-06T13:34:50Z</time>
      </trkpt>
      <trkpt lat="46.3815" lon="5.74263">
        <ele>674.64</ele>
        <time>2019-10-06T13:34:58Z</time>
      </trkpt>
      <trkpt lat="46.38146" lon="5.74272">
        <ele>674.55</ele>
        <time>2019-10-06T13:35:15Z</time>
      </trkpt>
      <trkpt lat="46.38147" lon="5.74274">
        <ele>674.55</ele>
        <time>2019-10-06T13:35:41Z</time>
      </trkpt>
      <trkpt lat="46.38135" lon="5.74282">
        <ele>674.57</ele>
        <time>2019-10-06T13:36:00Z</time>
      </trkpt>
      <trkpt lat="46.38122" lon="5.74289">
        <ele>677.11</ele>
        <time>2019-10-06T13:36:15Z</time>
      </trkpt>
      <trkpt lat="46.38111" lon="5.74311">
        <ele>680.37</ele>
        <time>2019-10-06T13:36:30Z</time>
      </trkpt>
      <trkpt lat="46.38099" lon="5.74331">
        <ele>681.82</ele>
        <time>2019-10-06T13:36:45Z</time>
      </trkpt>
      <trkpt lat="46.38083" lon="5.7435">
        <ele>684.17</ele>
        <time>2019-10-06T13:37:03Z</time>
      </trkpt>
      <trkpt lat="46.38072" lon="5.7437">
        <ele>686.83</ele>
        <time>2019-10-06T13:37:23Z</time>
      </trkpt>
      <trkpt lat="46.38067" lon="5.74379">
        <ele>687.62</ele>
        <time>2019-10-06T13:37:28Z</time>
      </trkpt>
      <trkpt lat="46.38055" lon="5.74393">
        <ele>689.29</ele>
        <time>2019-10-06T13:37:45Z</time>
      </trkpt>
      <trkpt lat="46.38052" lon="5.74397">
        <ele>689.26</ele>
        <time>2019-10-06T13:37:48Z</time>
      </trkpt>
      <trkpt lat="46.38037" lon="5.7442">
        <ele>689.13</ele>
        <time>2019-10-06T13:38:02Z</time>
      </trkpt>
      <trkpt lat="46.3802" lon="5.74442">
        <ele>689.12</ele>
        <time>2019-10-06T13:38:17Z</time>
      </trkpt>
      <trkpt lat="46.38013" lon="5.74457">
        <ele>690.04</ele>
        <time>2019-10-06T13:38:27Z</time>
      </trkpt>
      <trkpt lat="46.37998" lon="5.74473">
        <ele>691.74</ele>
        <time>2019-10-06T13:38:40Z</time>
      </trkpt>
      <trkpt lat="46.37995" lon="5.74477">
        <ele>691.7</ele>
        <time>2019-10-06T13:38:45Z</time>
      </trkpt>
      <trkpt lat="46.37994" lon="5.74477">
        <ele>691.66</ele>
        <time>2019-10-06T13:38:51Z</time>
      </trkpt>
      <trkpt lat="46.37992" lon="5.7451">
        <ele>691.61</ele>
        <time>2019-10-06T13:39:09Z</time>
      </trkpt>
      <trkpt lat="46.3799" lon="5.74522">
        <ele>691.61</ele>
        <time>2019-10-06T13:39:15Z</time>
      </trkpt>
      <trkpt lat="46.37984" lon="5.7455">
        <ele>691.65</ele>
        <time>2019-10-06T13:39:29Z</time>
      </trkpt>
      <trkpt lat="46.37974" lon="5.74574">
        <ele>691.69</ele>
        <time>2019-10-06T13:39:42Z</time>
      </trkpt>
      <trkpt lat="46.37965" lon="5.74588">
        <ele>691.73</ele>
        <time>2019-10-06T13:39:52Z</time>
      </trkpt>
      <trkpt lat="46.37957" lon="5.74617">
        <ele>691.81</ele>
        <time>2019-10-06T13:40:07Z</time>
      </trkpt>
      <trkpt lat="46.37956" lon="5.74643">
        <ele>691.84</ele>
        <time>2019-10-06T13:40:19Z</time>
      </trkpt>
      <trkpt lat="46.37957" lon="5.74671">
        <ele>691.9</ele>
        <time>2019-10-06T13:40:33Z</time>
      </trkpt>
      <trkpt lat="46.37958" lon="5.74699">
        <ele>692</ele>
        <time>2019-10-06T13:40:47Z</time>
      </trkpt>
      <trkpt lat="46.37954" lon="5.7473">
        <ele>693.07</ele>
        <time>2019-10-06T13:41:02Z</time>
      </trkpt>
      <trkpt lat="46.37944" lon="5.74756">
        <ele>693.19</ele>
        <time>2019-10-06T13:41:15Z</time>
      </trkpt>
      <trkpt lat="46.37942" lon="5.74759">
        <ele>693.21</ele>
        <time>2019-10-06T13:41:17Z</time>
      </trkpt>
      <trkpt lat="46.3794" lon="5.74768">
        <ele>694.09</ele>
        <time>2019-10-06T13:41:22Z</time>
      </trkpt>
      <trkpt lat="46.37938" lon="5.74778">
        <ele>694.14</ele>
        <time>2019-10-06T13:41:28Z</time>
      </trkpt>
      <trkpt lat="46.37922" lon="5.74805">
        <ele>694.99</ele>
        <time>2019-10-06T13:41:44Z</time>
      </trkpt>
      <trkpt lat="46.3791" lon="5.74826">
        <ele>695.93</ele>
        <time>2019-10-06T13:41:58Z</time>
      </trkpt>
      <trkpt lat="46.379" lon="5.74838">
        <ele>696.74</ele>
        <time>2019-10-06T13:42:06Z</time>
      </trkpt>
      <trkpt lat="46.37895" lon="5.74844">
        <ele>697.61</ele>
        <time>2019-10-06T13:42:11Z</time>
      </trkpt>
      <trkpt lat="46.37878" lon="5.74872">
        <ele>698.53</ele>
        <time>2019-10-06T13:42:30Z</time>
      </trkpt>
      <trkpt lat="46.37864" lon="5.74892">
        <ele>698.63</ele>
        <time>2019-10-06T13:42:46Z</time>
      </trkpt>
      <trkpt lat="46.3786" lon="5.7487">
        <ele>698.68</ele>
        <time>2019-10-06T13:43:01Z</time>
      </trkpt>
      <trkpt lat="46.37861" lon="5.74863">
        <ele>698.7</ele>
        <time>2019-10-06T13:43:05Z</time>
      </trkpt>
      <trkpt lat="46.37861" lon="5.74858">
        <ele>696.16</ele>
        <time>2019-10-06T13:43:09Z</time>
      </trkpt>
      <trkpt lat="46.37861" lon="5.74852">
        <ele>696.18</ele>
        <time>2019-10-06T13:43:12Z</time>
      </trkpt>
      <trkpt lat="46.3786" lon="5.74845">
        <ele>695.37</ele>
        <time>2019-10-06T13:43:16Z</time>
      </trkpt>
      <trkpt lat="46.3786" lon="5.7484">
        <ele>695.37</ele>
        <time>2019-10-06T13:43:19Z</time>
      </trkpt>
      <trkpt lat="46.37858" lon="5.74812">
        <ele>693.68</ele>
        <time>2019-10-06T13:43:32Z</time>
      </trkpt>
      <trkpt lat="46.37859" lon="5.74808">
        <ele>692.9</ele>
        <time>2019-10-06T13:43:34Z</time>
      </trkpt>
      <trkpt lat="46.3785" lon="5.74783">
        <ele>692.08</ele>
        <time>2019-10-06T13:43:50Z</time>
      </trkpt>
      <trkpt lat="46.37849" lon="5.74782">
        <ele>691.25</ele>
        <time>2019-10-06T13:43:51Z</time>
      </trkpt>
      <trkpt lat="46.37842" lon="5.74771">
        <ele>690.52</ele>
        <time>2019-10-06T13:44:07Z</time>
      </trkpt>
      <trkpt lat="46.37841" lon="5.74766">
        <ele>690.73</ele>
        <time>2019-10-06T13:44:28Z</time>
      </trkpt>
      <trkpt lat="46.37833" lon="5.74776">
        <ele>689.96</ele>
        <time>2019-10-06T13:44:41Z</time>
      </trkpt>
      <trkpt lat="46.37828" lon="5.74782">
        <ele>689.98</ele>
        <time>2019-10-06T13:44:46Z</time>
      </trkpt>
      <trkpt lat="46.37819" lon="5.74794">
        <ele>690.03</ele>
        <time>2019-10-06T13:44:54Z</time>
      </trkpt>
      <trkpt lat="46.37809" lon="5.7481">
        <ele>690.12</ele>
        <time>2019-10-06T13:45:06Z</time>
      </trkpt>
      <trkpt lat="46.37805" lon="5.74816">
        <ele>690.15</ele>
        <time>2019-10-06T13:45:11Z</time>
      </trkpt>
      <trkpt lat="46.37804" lon="5.74822">
        <ele>690.17</ele>
        <time>2019-10-06T13:45:14Z</time>
      </trkpt>
      <trkpt lat="46.37801" lon="5.74833">
        <ele>690.21</ele>
        <time>2019-10-06T13:45:21Z</time>
      </trkpt>
      <trkpt lat="46.37794" lon="5.74856">
        <ele>690.31</ele>
        <time>2019-10-06T13:45:36Z</time>
      </trkpt>
      <trkpt lat="46.37781" lon="5.74879">
        <ele>688.6</ele>
        <time>2019-10-06T13:45:54Z</time>
      </trkpt>
      <trkpt lat="46.37773" lon="5.74889">
        <ele>687.13</ele>
        <time>2019-10-06T13:46:03Z</time>
      </trkpt>
      <trkpt lat="46.3776" lon="5.74894">
        <ele>685.53</ele>
        <time>2019-10-06T13:46:15Z</time>
      </trkpt>
      <trkpt lat="46.37754" lon="5.74887">
        <ele>685.68</ele>
        <time>2019-10-06T13:46:24Z</time>
      </trkpt>
      <trkpt lat="46.37735" lon="5.74869">
        <ele>685.05</ele>
        <time>2019-10-06T13:46:38Z</time>
      </trkpt>
      <trkpt lat="46.37726" lon="5.74857">
        <ele>683.38</ele>
        <time>2019-10-06T13:46:46Z</time>
      </trkpt>
      <trkpt lat="46.37721" lon="5.74843">
        <ele>682.51</ele>
        <time>2019-10-06T13:46:54Z</time>
      </trkpt>
      <trkpt lat="46.37717" lon="5.74817">
        <ele>681.14</ele>
        <time>2019-10-06T13:47:09Z</time>
      </trkpt>
      <trkpt lat="46.37711" lon="5.74816">
        <ele>681.28</ele>
        <time>2019-10-06T13:47:19Z</time>
      </trkpt>
      <trkpt lat="46.37704" lon="5.74823">
        <ele>681.39</ele>
        <time>2019-10-06T13:47:27Z</time>
      </trkpt>
      <trkpt lat="46.37702" lon="5.74825">
        <ele>681.41</ele>
        <time>2019-10-06T13:47:29Z</time>
      </trkpt>
      <trkpt lat="46.37697" lon="5.7483">
        <ele>680.56</ele>
        <time>2019-10-06T13:47:35Z</time>
      </trkpt>
      <trkpt lat="46.37694" lon="5.74834">
        <ele>680.59</ele>
        <time>2019-10-06T13:47:38Z</time>
      </trkpt>
      <trkpt lat="46.37683" lon="5.74846">
        <ele>680.78</ele>
        <time>2019-10-06T13:47:52Z</time>
      </trkpt>
      <trkpt lat="46.37677" lon="5.74864">
        <ele>680.12</ele>
        <time>2019-10-06T13:48:09Z</time>
      </trkpt>
      <trkpt lat="46.37663" lon="5.74882">
        <ele>679.54</ele>
        <time>2019-10-06T13:48:28Z</time>
      </trkpt>
      <trkpt lat="46.37653" lon="5.74905">
        <ele>682.23</ele>
        <time>2019-10-06T13:48:44Z</time>
      </trkpt>
      <trkpt lat="46.37641" lon="5.74923">
        <ele>684.09</ele>
        <time>2019-10-06T13:48:56Z</time>
      </trkpt>
      <trkpt lat="46.37631" lon="5.74956">
        <ele>685.79</ele>
        <time>2019-10-06T13:49:12Z</time>
      </trkpt>
      <trkpt lat="46.3763" lon="5.74958">
        <ele>685.81</ele>
        <time>2019-10-06T13:49:13Z</time>
      </trkpt>
      <trkpt lat="46.37628" lon="5.74962">
        <ele>685.81</ele>
        <time>2019-10-06T13:49:15Z</time>
      </trkpt>
      <trkpt lat="46.37625" lon="5.74983">
        <ele>685.83</ele>
        <time>2019-10-06T13:49:25Z</time>
      </trkpt>
      <trkpt lat="46.37623" lon="5.75002">
        <ele>685.83</ele>
        <time>2019-10-06T13:49:34Z</time>
      </trkpt>
      <trkpt lat="46.37619" lon="5.75017">
        <ele>685.85</ele>
        <time>2019-10-06T13:49:42Z</time>
      </trkpt>
      <trkpt lat="46.37618" lon="5.7502">
        <ele>685.85</ele>
        <time>2019-10-06T13:49:44Z</time>
      </trkpt>
      <trkpt lat="46.37609" lon="5.75043">
        <ele>685.87</ele>
        <time>2019-10-06T13:49:58Z</time>
      </trkpt>
      <trkpt lat="46.37608" lon="5.75046">
        <ele>685.88</ele>
        <time>2019-10-06T13:49:59Z</time>
      </trkpt>
      <trkpt lat="46.37606" lon="5.75056">
        <ele>685.88</ele>
        <time>2019-10-06T13:50:03Z</time>
      </trkpt>
      <trkpt lat="46.37607" lon="5.75059">
        <ele>685.88</ele>
        <time>2019-10-06T13:50:05Z</time>
      </trkpt>
      <trkpt lat="46.37608" lon="5.75067">
        <ele>685.87</ele>
        <time>2019-10-06T13:50:09Z</time>
      </trkpt>
      <trkpt lat="46.37617" lon="5.75087">
        <ele>685.88</ele>
        <time>2019-10-06T13:50:21Z</time>
      </trkpt>
      <trkpt lat="46.37622" lon="5.75105">
        <ele>687.81</ele>
        <time>2019-10-06T13:50:34Z</time>
      </trkpt>
      <trkpt lat="46.37633" lon="5.75129">
        <ele>689.45</ele>
        <time>2019-10-06T13:50:50Z</time>
      </trkpt>
      <trkpt lat="46.37638" lon="5.75138">
        <ele>691.25</ele>
        <time>2019-10-06T13:50:59Z</time>
      </trkpt>
      <trkpt lat="46.37643" lon="5.7514">
        <ele>692.11</ele>
        <time>2019-10-06T13:51:03Z</time>
      </trkpt>
      <trkpt lat="46.37648" lon="5.75147">
        <ele>692.86</ele>
        <time>2019-10-06T13:51:09Z</time>
      </trkpt>
      <trkpt lat="46.37652" lon="5.75154">
        <ele>693.88</ele>
        <time>2019-10-06T13:51:14Z</time>
      </trkpt>
      <trkpt lat="46.37654" lon="5.75164">
        <ele>693.68</ele>
        <time>2019-10-06T13:51:20Z</time>
      </trkpt>
      <trkpt lat="46.37645" lon="5.75178">
        <ele>695.25</ele>
        <time>2019-10-06T13:51:32Z</time>
      </trkpt>
      <trkpt lat="46.37635" lon="5.75195">
        <ele>696.93</ele>
        <time>2019-10-06T13:51:45Z</time>
      </trkpt>
      <trkpt lat="46.37628" lon="5.75212">
        <ele>697.86</ele>
        <time>2019-10-06T13:51:59Z</time>
      </trkpt>
      <trkpt lat="46.37622" lon="5.7522">
        <ele>697.85</ele>
        <time>2019-10-06T13:52:06Z</time>
      </trkpt>
      <trkpt lat="46.37619" lon="5.75225">
        <ele>698.74</ele>
        <time>2019-10-06T13:52:10Z</time>
      </trkpt>
      <trkpt lat="46.37614" lon="5.75233">
        <ele>699.54</ele>
        <time>2019-10-06T13:52:17Z</time>
      </trkpt>
      <trkpt lat="46.37602" lon="5.75254">
        <ele>702.08</ele>
        <time>2019-10-06T13:52:32Z</time>
      </trkpt>
      <trkpt lat="46.37598" lon="5.75259">
        <ele>701.93</ele>
        <time>2019-10-06T13:52:36Z</time>
      </trkpt>
      <trkpt lat="46.37597" lon="5.75262">
        <ele>702.69</ele>
        <time>2019-10-06T13:52:38Z</time>
      </trkpt>
      <trkpt lat="46.37587" lon="5.75279">
        <ele>705.25</ele>
        <time>2019-10-06T13:52:51Z</time>
      </trkpt>
      <trkpt lat="46.37574" lon="5.75294">
        <ele>707.84</ele>
        <time>2019-10-06T13:53:06Z</time>
      </trkpt>
      <trkpt lat="46.37565" lon="5.75302">
        <ele>708.69</ele>
        <time>2019-10-06T13:53:16Z</time>
      </trkpt>
      <trkpt lat="46.37559" lon="5.75307">
        <ele>709.54</ele>
        <time>2019-10-06T13:53:21Z</time>
      </trkpt>
      <trkpt lat="46.37544" lon="5.75333">
        <ele>709.46</ele>
        <time>2019-10-06T13:53:37Z</time>
      </trkpt>
      <trkpt lat="46.37543" lon="5.7534">
        <ele>709.45</ele>
        <time>2019-10-06T13:53:41Z</time>
      </trkpt>
      <trkpt lat="46.37543" lon="5.75348">
        <ele>709.43</ele>
        <time>2019-10-06T13:53:45Z</time>
      </trkpt>
      <trkpt lat="46.37531" lon="5.75377">
        <ele>709.34</ele>
        <time>2019-10-06T13:54:00Z</time>
      </trkpt>
      <trkpt lat="46.37514" lon="5.75398">
        <ele>709.23</ele>
        <time>2019-10-06T13:54:14Z</time>
      </trkpt>
      <trkpt lat="46.375" lon="5.75417">
        <ele>709.12</ele>
        <time>2019-10-06T13:54:28Z</time>
      </trkpt>
      <trkpt lat="46.37499" lon="5.75419">
        <ele>706.83</ele>
        <time>2019-10-06T13:54:30Z</time>
      </trkpt>
      <trkpt lat="46.37482" lon="5.7543">
        <ele>706.72</ele>
        <time>2019-10-06T13:54:43Z</time>
      </trkpt>
      <trkpt lat="46.37477" lon="5.75436">
        <ele>705.89</ele>
        <time>2019-10-06T13:54:48Z</time>
      </trkpt>
      <trkpt lat="46.37476" lon="5.75437">
        <ele>705.88</ele>
        <time>2019-10-06T13:54:49Z</time>
      </trkpt>
      <trkpt lat="46.37475" lon="5.75439">
        <ele>705.03</ele>
        <time>2019-10-06T13:54:50Z</time>
      </trkpt>
      <trkpt lat="46.37475" lon="5.7544">
        <ele>705.02</ele>
        <time>2019-10-06T13:54:51Z</time>
      </trkpt>
      <trkpt lat="46.37474" lon="5.75442">
        <ele>705.01</ele>
        <time>2019-10-06T13:54:52Z</time>
      </trkpt>
      <trkpt lat="46.37468" lon="5.75467">
        <ele>703.28</ele>
        <time>2019-10-06T13:55:05Z</time>
      </trkpt>
      <trkpt lat="46.37465" lon="5.75494">
        <ele>702.38</ele>
        <time>2019-10-06T13:55:19Z</time>
      </trkpt>
      <trkpt lat="46.37459" lon="5.75519">
        <ele>702.29</ele>
        <time>2019-10-06T13:55:32Z</time>
      </trkpt>
      <trkpt lat="46.3744" lon="5.75539">
        <ele>701.43</ele>
        <time>2019-10-06T13:55:47Z</time>
      </trkpt>
      <trkpt lat="46.37422" lon="5.7555">
        <ele>701.38</ele>
        <time>2019-10-06T13:56:04Z</time>
      </trkpt>
      <trkpt lat="46.37405" lon="5.7554">
        <ele>700.59</ele>
        <time>2019-10-06T13:56:18Z</time>
      </trkpt>
      <trkpt lat="46.37404" lon="5.75539">
        <ele>700.58</ele>
        <time>2019-10-06T13:56:19Z</time>
      </trkpt>
      <trkpt lat="46.37394" lon="5.75519">
        <ele>700.5</ele>
        <time>2019-10-06T13:56:35Z</time>
      </trkpt>
      <trkpt lat="46.37392" lon="5.75518">
        <ele>700.5</ele>
        <time>2019-10-06T13:56:36Z</time>
      </trkpt>
      <trkpt lat="46.37391" lon="5.75518">
        <ele>699.58</ele>
        <time>2019-10-06T13:56:37Z</time>
      </trkpt>
      <trkpt lat="46.3739" lon="5.75517">
        <ele>699.55</ele>
        <time>2019-10-06T13:56:38Z</time>
      </trkpt>
      <trkpt lat="46.37388" lon="5.75516">
        <ele>699.56</ele>
        <time>2019-10-06T13:56:39Z</time>
      </trkpt>
      <trkpt lat="46.37372" lon="5.75515">
        <ele>696.89</ele>
        <time>2019-10-06T13:56:51Z</time>
      </trkpt>
      <trkpt lat="46.37367" lon="5.75513">
        <ele>696.01</ele>
        <time>2019-10-06T13:56:55Z</time>
      </trkpt>
      <trkpt lat="46.37366" lon="5.75512">
        <ele>695.79</ele>
        <time>2019-10-06T13:56:56Z</time>
      </trkpt>
      <trkpt lat="46.37365" lon="5.75509">
        <ele>695.8</ele>
        <time>2019-10-06T13:56:58Z</time>
      </trkpt>
      <trkpt lat="46.3736" lon="5.75498">
        <ele>693.38</ele>
        <time>2019-10-06T13:57:06Z</time>
      </trkpt>
      <trkpt lat="46.37348" lon="5.75486">
        <ele>692.4</ele>
        <time>2019-10-06T13:57:17Z</time>
      </trkpt>
      <trkpt lat="46.37343" lon="5.75487">
        <ele>692.54</ele>
        <time>2019-10-06T13:57:22Z</time>
      </trkpt>
      <trkpt lat="46.3733" lon="5.75498">
        <ele>692.58</ele>
        <time>2019-10-06T13:57:35Z</time>
      </trkpt>
      <trkpt lat="46.37327" lon="5.75503">
        <ele>694.84</ele>
        <time>2019-10-06T13:57:41Z</time>
      </trkpt>
      <trkpt lat="46.37315" lon="5.75523">
        <ele>696.51</ele>
        <time>2019-10-06T13:57:58Z</time>
      </trkpt>
      <trkpt lat="46.37296" lon="5.75531">
        <ele>696.48</ele>
        <time>2019-10-06T13:58:14Z</time>
      </trkpt>
      <trkpt lat="46.37282" lon="5.75532">
        <ele>696.43</ele>
        <time>2019-10-06T13:58:24Z</time>
      </trkpt>
      <trkpt lat="46.37265" lon="5.75533">
        <ele>696.42</ele>
        <time>2019-10-06T13:58:37Z</time>
      </trkpt>
      <trkpt lat="46.37252" lon="5.75532">
        <ele>694.08</ele>
        <time>2019-10-06T13:58:48Z</time>
      </trkpt>
      <trkpt lat="46.3723" lon="5.75531">
        <ele>691.76</ele>
        <time>2019-10-06T13:59:07Z</time>
      </trkpt>
      <trkpt lat="46.37208" lon="5.7553">
        <ele>690.08</ele>
        <time>2019-10-06T13:59:26Z</time>
      </trkpt>
      <trkpt lat="46.37204" lon="5.75532">
        <ele>689.25</ele>
        <time>2019-10-06T13:59:29Z</time>
      </trkpt>
      <trkpt lat="46.37175" lon="5.75539">
        <ele>687.01</ele>
        <time>2019-10-06T13:59:49Z</time>
      </trkpt>
      <trkpt lat="46.37149" lon="5.75546">
        <ele>684.9</ele>
        <time>2019-10-06T14:00:07Z</time>
      </trkpt>
      <trkpt lat="46.37123" lon="5.75544">
        <ele>681.86</ele>
        <time>2019-10-06T14:00:27Z</time>
      </trkpt>
      <trkpt lat="46.37095" lon="5.75537">
        <ele>681.41</ele>
        <time>2019-10-06T14:00:46Z</time>
      </trkpt>
      <trkpt lat="46.37079" lon="5.75526">
        <ele>680.9</ele>
        <time>2019-10-06T14:01:02Z</time>
      </trkpt>
      <trkpt lat="46.37077" lon="5.75524">
        <ele>680.95</ele>
        <time>2019-10-06T14:01:05Z</time>
      </trkpt>
      <trkpt lat="46.37075" lon="5.75523">
        <ele>680.97</ele>
        <time>2019-10-06T14:01:07Z</time>
      </trkpt>
      <trkpt lat="46.3705" lon="5.75503">
        <ele>677.29</ele>
        <time>2019-10-06T14:01:28Z</time>
      </trkpt>
      <trkpt lat="46.37034" lon="5.75488">
        <ele>675.74</ele>
        <time>2019-10-06T14:01:38Z</time>
      </trkpt>
      <trkpt lat="46.3703" lon="5.75484">
        <ele>674.85</ele>
        <time>2019-10-06T14:01:41Z</time>
      </trkpt>
      <trkpt lat="46.3702" lon="5.75472">
        <ele>673.16</ele>
        <time>2019-10-06T14:01:52Z</time>
      </trkpt>
      <trkpt lat="46.37" lon="5.75454">
        <ele>669.79</ele>
        <time>2019-10-06T14:02:10Z</time>
      </trkpt>
      <trkpt lat="46.36977" lon="5.7544">
        <ele>666.3</ele>
        <time>2019-10-06T14:02:29Z</time>
      </trkpt>
      <trkpt lat="46.36971" lon="5.75429">
        <ele>663.05</ele>
        <time>2019-10-06T14:02:43Z</time>
      </trkpt>
      <trkpt lat="46.36961" lon="5.75432">
        <ele>659.38</ele>
        <time>2019-10-06T14:02:55Z</time>
      </trkpt>
      <trkpt lat="46.36942" lon="5.75436">
        <ele>656.31</ele>
        <time>2019-10-06T14:03:09Z</time>
      </trkpt>
      <trkpt lat="46.36926" lon="5.75444">
        <ele>652.6</ele>
        <time>2019-10-06T14:03:22Z</time>
      </trkpt>
      <trkpt lat="46.36912" lon="5.75455">
        <ele>649.12</ele>
        <time>2019-10-06T14:03:35Z</time>
      </trkpt>
      <trkpt lat="46.36905" lon="5.75465">
        <ele>646.36</ele>
        <time>2019-10-06T14:03:47Z</time>
      </trkpt>
      <trkpt lat="46.36901" lon="5.75474">
        <ele>645.58</ele>
        <time>2019-10-06T14:03:53Z</time>
      </trkpt>
      <trkpt lat="46.36901" lon="5.75482">
        <ele>644.83</ele>
        <time>2019-10-06T14:03:57Z</time>
      </trkpt>
      <trkpt lat="46.36903" lon="5.75488">
        <ele>644.1</ele>
        <time>2019-10-06T14:04:01Z</time>
      </trkpt>
      <trkpt lat="46.36898" lon="5.75501">
        <ele>644.23</ele>
        <time>2019-10-06T14:04:08Z</time>
      </trkpt>
      <trkpt lat="46.36897" lon="5.75507">
        <ele>644.27</ele>
        <time>2019-10-06T14:04:11Z</time>
      </trkpt>
      <trkpt lat="46.36898" lon="5.75526">
        <ele>644.41</ele>
        <time>2019-10-06T14:04:26Z</time>
      </trkpt>
      <trkpt lat="46.36897" lon="5.75529">
        <ele>644.43</ele>
        <time>2019-10-06T14:04:29Z</time>
      </trkpt>
      <trkpt lat="46.36889" lon="5.75534">
        <ele>646.76</ele>
        <time>2019-10-06T14:04:37Z</time>
      </trkpt>
      <trkpt lat="46.36876" lon="5.75541">
        <ele>649.66</ele>
        <time>2019-10-06T14:04:54Z</time>
      </trkpt>
      <trkpt lat="46.36869" lon="5.75547">
        <ele>650.45</ele>
        <time>2019-10-06T14:05:04Z</time>
      </trkpt>
      <trkpt lat="46.36857" lon="5.75545">
        <ele>651.05</ele>
        <time>2019-10-06T14:05:19Z</time>
      </trkpt>
      <trkpt lat="46.36856" lon="5.75544">
        <ele>651.87</ele>
        <time>2019-10-06T14:05:20Z</time>
      </trkpt>
      <trkpt lat="46.36852" lon="5.75543">
        <ele>651.85</ele>
        <time>2019-10-06T14:05:24Z</time>
      </trkpt>
      <trkpt lat="46.36842" lon="5.7554">
        <ele>652.54</ele>
        <time>2019-10-06T14:05:34Z</time>
      </trkpt>
      <trkpt lat="46.36822" lon="5.75537">
        <ele>653.93</ele>
        <time>2019-10-06T14:05:54Z</time>
      </trkpt>
      <trkpt lat="46.36807" lon="5.75538">
        <ele>654.55</ele>
        <time>2019-10-06T14:06:12Z</time>
      </trkpt>
      <trkpt lat="46.36786" lon="5.75548">
        <ele>654.32</ele>
        <time>2019-10-06T14:06:29Z</time>
      </trkpt>
      <trkpt lat="46.36785" lon="5.75549">
        <ele>654.3</ele>
        <time>2019-10-06T14:06:31Z</time>
      </trkpt>
      <trkpt lat="46.36772" lon="5.75555">
        <ele>655.05</ele>
        <time>2019-10-06T14:06:45Z</time>
      </trkpt>
      <trkpt lat="46.36766" lon="5.75558">
        <ele>655.77</ele>
        <time>2019-10-06T14:06:51Z</time>
      </trkpt>
      <trkpt lat="46.36766" lon="5.75562">
        <ele>656.74</ele>
        <time>2019-10-06T14:06:58Z</time>
      </trkpt>
      <trkpt lat="46.3678" lon="5.7556">
        <ele>658.07</ele>
        <time>2019-10-06T14:07:13Z</time>
      </trkpt>
      <trkpt lat="46.36791" lon="5.7556">
        <ele>659.51</ele>
        <time>2019-10-06T14:07:26Z</time>
      </trkpt>
      <trkpt lat="46.36804" lon="5.75564">
        <ele>660.21</ele>
        <time>2019-10-06T14:07:41Z</time>
      </trkpt>
      <trkpt lat="46.3682" lon="5.75561">
        <ele>661.67</ele>
        <time>2019-10-06T14:07:56Z</time>
      </trkpt>
      <trkpt lat="46.36841" lon="5.75566">
        <ele>662.49</ele>
        <time>2019-10-06T14:08:11Z</time>
      </trkpt>
      <trkpt lat="46.36858" lon="5.75575">
        <ele>662.44</ele>
        <time>2019-10-06T14:08:24Z</time>
      </trkpt>
      <trkpt lat="46.36873" lon="5.75581">
        <ele>663.23</ele>
        <time>2019-10-06T14:08:34Z</time>
      </trkpt>
      <trkpt lat="46.3688" lon="5.75581">
        <ele>663.21</ele>
        <time>2019-10-06T14:08:39Z</time>
      </trkpt>
      <trkpt lat="46.36894" lon="5.7559">
        <ele>663.18</ele>
        <time>2019-10-06T14:08:54Z</time>
      </trkpt>
      <trkpt lat="46.36913" lon="5.75603">
        <ele>663.14</ele>
        <time>2019-10-06T14:09:12Z</time>
      </trkpt>
      <trkpt lat="46.36936" lon="5.75613">
        <ele>663.11</ele>
        <time>2019-10-06T14:09:28Z</time>
      </trkpt>
      <trkpt lat="46.36946" lon="5.75617">
        <ele>663.12</ele>
        <time>2019-10-06T14:09:38Z</time>
      </trkpt>
      <trkpt lat="46.36952" lon="5.75611">
        <ele>663.16</ele>
        <time>2019-10-06T14:09:54Z</time>
      </trkpt>
      <trkpt lat="46.36958" lon="5.75618">
        <ele>663.21</ele>
        <time>2019-10-06T14:10:22Z</time>
      </trkpt>
      <trkpt lat="46.36963" lon="5.75622">
        <ele>663.22</ele>
        <time>2019-10-06T14:10:26Z</time>
      </trkpt>
      <trkpt lat="46.3698" lon="5.75639">
        <ele>663.2</ele>
        <time>2019-10-06T14:10:43Z</time>
      </trkpt>
      <trkpt lat="46.36989" lon="5.75651">
        <ele>663.23</ele>
        <time>2019-10-06T14:10:53Z</time>
      </trkpt>
      <trkpt lat="46.36995" lon="5.75658">
        <ele>663.24</ele>
        <time>2019-10-06T14:10:57Z</time>
      </trkpt>
      <trkpt lat="46.36997" lon="5.7566">
        <ele>663.22</ele>
        <time>2019-10-06T14:10:59Z</time>
      </trkpt>
      <trkpt lat="46.37011" lon="5.7567">
        <ele>663.28</ele>
        <time>2019-10-06T14:11:10Z</time>
      </trkpt>
      <trkpt lat="46.37018" lon="5.75677">
        <ele>663.29</ele>
        <time>2019-10-06T14:11:16Z</time>
      </trkpt>
      <trkpt lat="46.37028" lon="5.75691">
        <ele>663.34</ele>
        <time>2019-10-06T14:11:26Z</time>
      </trkpt>
      <trkpt lat="46.37043" lon="5.75703">
        <ele>663.37</ele>
        <time>2019-10-06T14:11:37Z</time>
      </trkpt>
      <trkpt lat="46.37059" lon="5.75713">
        <ele>663.43</ele>
        <time>2019-10-06T14:11:50Z</time>
      </trkpt>
      <trkpt lat="46.37062" lon="5.75714">
        <ele>663.46</ele>
        <time>2019-10-06T14:11:53Z</time>
      </trkpt>
      <trkpt lat="46.37063" lon="5.75715">
        <ele>663.45</ele>
        <time>2019-10-06T14:11:54Z</time>
      </trkpt>
      <trkpt lat="46.37067" lon="5.75717">
        <ele>661.17</ele>
        <time>2019-10-06T14:11:57Z</time>
      </trkpt>
      <trkpt lat="46.37083" lon="5.75722">
        <ele>661.22</ele>
        <time>2019-10-06T14:12:10Z</time>
      </trkpt>
      <trkpt lat="46.37108" lon="5.75731">
        <ele>661.26</ele>
        <time>2019-10-06T14:12:27Z</time>
      </trkpt>
      <trkpt lat="46.37124" lon="5.75747">
        <ele>661.17</ele>
        <time>2019-10-06T14:12:40Z</time>
      </trkpt>
      <trkpt lat="46.37139" lon="5.75761">
        <ele>660.32</ele>
        <time>2019-10-06T14:12:52Z</time>
      </trkpt>
      <trkpt lat="46.3714" lon="5.75762">
        <ele>660.32</ele>
        <time>2019-10-06T14:12:53Z</time>
      </trkpt>
      <trkpt lat="46.37142" lon="5.75763">
        <ele>660.33</ele>
        <time>2019-10-06T14:12:54Z</time>
      </trkpt>
      <trkpt lat="46.37162" lon="5.7577">
        <ele>660.29</ele>
        <time>2019-10-06T14:13:09Z</time>
      </trkpt>
      <trkpt lat="46.37178" lon="5.75771">
        <ele>662.51</ele>
        <time>2019-10-06T14:13:22Z</time>
      </trkpt>
      <trkpt lat="46.37203" lon="5.75768">
        <ele>663.2</ele>
        <time>2019-10-06T14:13:39Z</time>
      </trkpt>
      <trkpt lat="46.37224" lon="5.75766">
        <ele>663</ele>
        <time>2019-10-06T14:13:54Z</time>
      </trkpt>
      <trkpt lat="46.37225" lon="5.75767">
        <ele>662.98</ele>
        <time>2019-10-06T14:13:55Z</time>
      </trkpt>
      <trkpt lat="46.37236" lon="5.7578">
        <ele>666.13</ele>
        <time>2019-10-06T14:14:11Z</time>
      </trkpt>
      <trkpt lat="46.37253" lon="5.75791">
        <ele>668.54</ele>
        <time>2019-10-06T14:14:29Z</time>
      </trkpt>
      <trkpt lat="46.37267" lon="5.758">
        <ele>670.75</ele>
        <time>2019-10-06T14:14:48Z</time>
      </trkpt>
      <trkpt lat="46.37275" lon="5.75803">
        <ele>670.65</ele>
        <time>2019-10-06T14:14:53Z</time>
      </trkpt>
      <trkpt lat="46.37277" lon="5.75802">
        <ele>670.63</ele>
        <time>2019-10-06T14:14:54Z</time>
      </trkpt>
      <trkpt lat="46.37279" lon="5.75802">
        <ele>670.62</ele>
        <time>2019-10-06T14:14:55Z</time>
      </trkpt>
      <trkpt lat="46.373" lon="5.75804">
        <ele>671.97</ele>
        <time>2019-10-06T14:15:11Z</time>
      </trkpt>
      <trkpt lat="46.37318" lon="5.75819">
        <ele>671.74</ele>
        <time>2019-10-06T14:15:27Z</time>
      </trkpt>
      <trkpt lat="46.37336" lon="5.75835">
        <ele>672.51</ele>
        <time>2019-10-06T14:15:43Z</time>
      </trkpt>
      <trkpt lat="46.37354" lon="5.75842">
        <ele>672.38</ele>
        <time>2019-10-06T14:15:58Z</time>
      </trkpt>
      <trkpt lat="46.37372" lon="5.75855">
        <ele>673.06</ele>
        <time>2019-10-06T14:16:16Z</time>
      </trkpt>
      <trkpt lat="46.37386" lon="5.75868">
        <ele>674.72</ele>
        <time>2019-10-06T14:16:31Z</time>
      </trkpt>
      <trkpt lat="46.37396" lon="5.75885">
        <ele>675.4</ele>
        <time>2019-10-06T14:16:44Z</time>
      </trkpt>
      <trkpt lat="46.37405" lon="5.75905">
        <ele>675.3</ele>
        <time>2019-10-06T14:16:58Z</time>
      </trkpt>
      <trkpt lat="46.37418" lon="5.75927">
        <ele>676.01</ele>
        <time>2019-10-06T14:17:14Z</time>
      </trkpt>
      <trkpt lat="46.3743" lon="5.75946">
        <ele>675.91</ele>
        <time>2019-10-06T14:17:28Z</time>
      </trkpt>
      <trkpt lat="46.37439" lon="5.7596">
        <ele>675.87</ele>
        <time>2019-10-06T14:17:39Z</time>
      </trkpt>
      <trkpt lat="46.37439" lon="5.75968">
        <ele>675.86</ele>
        <time>2019-10-06T14:17:43Z</time>
      </trkpt>
      <trkpt lat="46.37436" lon="5.75989">
        <ele>675.85</ele>
        <time>2019-10-06T14:17:53Z</time>
      </trkpt>
      <trkpt lat="46.37437" lon="5.75998">
        <ele>676.62</ele>
        <time>2019-10-06T14:17:57Z</time>
      </trkpt>
      <trkpt lat="46.37438" lon="5.76028">
        <ele>677.33</ele>
        <time>2019-10-06T14:18:11Z</time>
      </trkpt>
      <trkpt lat="46.37424" lon="5.76025">
        <ele>677.3</ele>
        <time>2019-10-06T14:18:20Z</time>
      </trkpt>
      <trkpt lat="46.374" lon="5.76017">
        <ele>678.17</ele>
        <time>2019-10-06T14:18:37Z</time>
      </trkpt>
      <trkpt lat="46.37391" lon="5.76015">
        <ele>678.13</ele>
        <time>2019-10-06T14:18:45Z</time>
      </trkpt>
      <trkpt lat="46.37376" lon="5.7603">
        <ele>679.75</ele>
        <time>2019-10-06T14:19:02Z</time>
      </trkpt>
      <trkpt lat="46.37374" lon="5.76039">
        <ele>679.69</ele>
        <time>2019-10-06T14:19:09Z</time>
      </trkpt>
      <trkpt lat="46.37376" lon="5.76048">
        <ele>686.47</ele>
        <time>2019-10-06T14:19:21Z</time>
      </trkpt>
    </trkseg>
  </trk>
</gpx>